Observation data for Sterling City on 05/16/2018      Previous  Date  Next       Current Mesonet Observations  Soil Data  Daily Summary Page  Observations in Plain Language
KSC1 160500Z 11009KT 21/14 A3001 RMK A01 T02060140  RH  066%=      5-min Rain = 0
KSC1 160501Z 10009KT 21/14 A3001 RMK A01 T02070140  RH  066%=      5-min Rain = 0
KSC1 160502Z 11009KT 21/14 A3001 RMK A01 T02060140  RH  066%=      5-min Rain = 0
KSC1 160503Z 11009KT 21/14 A3001 RMK A01 T02070141  RH  066%=      5-min Rain = 0
KSC1 160504Z 10009KT 21/14 A3001 RMK A01 T02060140  RH  066%=      5-min Rain = 0
KSC1 160505Z 11010KT 21/14 A3001 RMK A01 T02060140  RH  066%=      5-min Rain = 0
KSC1 160506Z 10009KT 21/14 A3001 RMK A01 T02060139  RH  065%=      5-min Rain = 0
KSC1 160507Z 11009KT 21/14 A3001 RMK A01 T02060140  RH  066%=      5-min Rain = 0
KSC1 160508Z 10010KT 21/14 A30 RMK A01 T02060140  RH  066%=      5-min Rain = 0
KSC1 160509Z 11012KT 21/14 A30 RMK A01 T02060138  RH  065%=      5-min Rain = 0
KSC1 160510Z 11009KT 21/14 A30 RMK A01 T02060138  RH  065%=      5-min Rain = 0
KSC1 160511Z 11011KT 21/14 A30 RMK A01 T02070138  RH  065%=      5-min Rain = 0
KSC1 160512Z 11010KT 21/14 A30 RMK A01 T02060138  RH  065%=      5-min Rain = 0
KSC1 160513Z 11010KT 21/14 A30 RMK A01 T02070138  RH  065%=      5-min Rain = 0
KSC1 160514Z 10010KT 21/14 A30 RMK A01 T02060137  RH  065%=      5-min Rain = 0
KSC1 160515Z 10008KT 21/14 A30 RMK A01 T02070138  RH  065%=      5-min Rain = 0
KSC1 160516Z 10010KT 21/14 A30 RMK A01 T02060138  RH  065%=      5-min Rain = 0
KSC1 160517Z 10009KT 21/14 A30 RMK A01 T02060138  RH  065%=      5-min Rain = 0
KSC1 160518Z 10009KT 21/14 A30 RMK A01 T02050138  RH  065%=      5-min Rain = 0
KSC1 160519Z 11010KT 21/14 A30 RMK A01 T02050138  RH  065%=      5-min Rain = 0
KSC1 160520Z 11010KT 21/14 A30 RMK A01 T02050137  RH  065%=      5-min Rain = 0
KSC1 160521Z 10010KT 21/14 A30 RMK A01 T02050138  RH  065%=      5-min Rain = 0
KSC1 160522Z 11010KT 21/14 A30 RMK A01 T02050138  RH  065%=      5-min Rain = 0
KSC1 160523Z 10008KT 20/14 A30 RMK A01 T02040137  RH  065%=      5-min Rain = 0
KSC1 160524Z 10010KT 20/14 A30 RMK A01 T02040138  RH  066%=      5-min Rain = 0
KSC1 160525Z 10009KT 20/14 A30 RMK A01 T02040137  RH  066%=      5-min Rain = 0
KSC1 160526Z 10009KT 20/14 A30 RMK A01 T02040137  RH  066%=      5-min Rain = 0
KSC1 160527Z 10010KT 20/14 A30 RMK A01 T02040137  RH  066%=      5-min Rain = 0
KSC1 160528Z 11009KT 20/14 A30 RMK A01 T02040137  RH  065%=      5-min Rain = 0
KSC1 160529Z 10009KT 20/14 A30 RMK A01 T02040137  RH  066%=      5-min Rain = 0
KSC1 160530Z 10009KT 20/14 A30 RMK A01 T02030137  RH  066%=      5-min Rain = 0
KSC1 160531Z 10008KT 20/14 A30 RMK A01 T02030137  RH  066%=      5-min Rain = 0
KSC1 160532Z 10009KT 20/14 A30 RMK A01 T02030138  RH  066%=      5-min Rain = 0
KSC1 160533Z 11007KT 20/14 A30 RMK A01 T02020138  RH  067%=      5-min Rain = 0
KSC1 160534Z 11009KT 20/14 A30 RMK A01 T02020138  RH  067%=      5-min Rain = 0
KSC1 160535Z 11008KT 20/14 A30 RMK A01 T02020137  RH  067%=      5-min Rain = 0
KSC1 160536Z 11008KT 20/14 A30 RMK A01 T02010137  RH  066%=      5-min Rain = 0
KSC1 160537Z 12010KT 20/14 A30 RMK A01 T02010136  RH  066%=      5-min Rain = 0
KSC1 160538Z 12008KT 20/14 A30 RMK A01 T02020136  RH  066%=      5-min Rain = 0
KSC1 160539Z 12009KT 20/14 A30 RMK A01 T02020137  RH  066%=      5-min Rain = 0
KSC1 160540Z 11011KT 20/14 A30 RMK A01 T02020136  RH  066%=      5-min Rain = 0
KSC1 160541Z 11011KT 20/14 A30 RMK A01 T02020136  RH  066%=      5-min Rain = 0
KSC1 160542Z 12009KT 20/14 A30 RMK A01 T02020136  RH  066%=      5-min Rain = 0
KSC1 160543Z 11009KT 20/14 A30 RMK A01 T02020136  RH  066%=      5-min Rain = 0
KSC1 160544Z 11009KT 20/14 A30 RMK A01 T02020136  RH  066%=      5-min Rain = 0
KSC1 160545Z 11009KT 20/14 A30 RMK A01 T02010136  RH  066%=      5-min Rain = 0
KSC1 160546Z 11011KT 20/14 A30 RMK A01 T02010135  RH  066%=      5-min Rain = 0
KSC1 160547Z 11011KT 20/14 A30 RMK A01 T02010135  RH  065%=      5-min Rain = 0
KSC1 160548Z 11009KT 20/14 A30 RMK A01 T02020135  RH  065%=      5-min Rain = 0
KSC1 160549Z 11009KT 20/14 A30 RMK A01 T02010135  RH  066%=      5-min Rain = 0
KSC1 160550Z 11009KT 20/14 A30 RMK A01 T02010136  RH  066%=      5-min Rain = 0
KSC1 160551Z 11011KT 20/14 A30 RMK A01 T02000135  RH  066%=      5-min Rain = 0
KSC1 160552Z 11008KT 20/14 A30 RMK A01 T02010135  RH  066%=      5-min Rain = 0
KSC1 160553Z 11009KT 20/14 A30 RMK A01 T02000136  RH  066%=      5-min Rain = 0
KSC1 160554Z 11008KT 20/14 A30 RMK A01 T02000135  RH  066%=      5-min Rain = 0
KSC1 160555Z 11007KT 20/14 A30 RMK A01 T02000136  RH  067%=      5-min Rain = 0
KSC1 160556Z 11010KT 20/14 A30 RMK A01 T01990136  RH  067%=      5-min Rain = 0
KSC1 160557Z 11010KT 20/14 A30 RMK A01 T01990136  RH  067%=      5-min Rain = 0
KSC1 160558Z 12011KT 20/14 A30 RMK A01 T01990135  RH  066%=      5-min Rain = 0
KSC1 160559Z 11011KT 20/13 A30 RMK A01 T01990134  RH  066%=      5-min Rain = 0
KSC1 160600Z 11010KT 20/14 A30 RMK A01 T01990135  RH  066%=      5-min Rain = 0
KSC1 160601Z 11009KT 20/14 A30 RMK A01 T01990135  RH  066%=      5-min Rain = 0
KSC1 160602Z 12009KT 20/14 A30 RMK A01 T01990135  RH  066%=      5-min Rain = 0
KSC1 160603Z 11008KT 20/14 A30 RMK A01 T01990136  RH  067%=      5-min Rain = 0
KSC1 160604Z 11009KT 20/14 A30 RMK A01 T01990136  RH  067%=      5-min Rain = 0
KSC1 160605Z 12009KT 20/14 A30 RMK A01 T01980136  RH  067%=      5-min Rain = 0
KSC1 160606Z 11009KT 20/14 A30 RMK A01 T01980136  RH  067%=      5-min Rain = 0
KSC1 160607Z 11011KT 20/14 A30 RMK A01 T01980136  RH  067%=      5-min Rain = 0
KSC1 160608Z 12010KT 20/14 A30 RMK A01 T01980136  RH  068%=      5-min Rain = 0
KSC1 160609Z 12008KT 20/14 A30 RMK A01 T01980137  RH  068%=      5-min Rain = 0
KSC1 160610Z 11008KT 20/14 A30 RMK A01 T01970137  RH  068%=      5-min Rain = 0
KSC1 160611Z 11011KT 20/14 A30 RMK A01 T01970137  RH  068%=      5-min Rain = 0
KSC1 160612Z 11009KT 20/14 A30 RMK A01 T01970137  RH  068%=      5-min Rain = 0
KSC1 160613Z 11008KT 20/14 A30 RMK A01 T01970137  RH  068%=      5-min Rain = 0
KSC1 160614Z 12010KT 20/14 A30 RMK A01 T01970137  RH  068%=      5-min Rain = 0
KSC1 160615Z 11010KT 20/14 A30 RMK A01 T01970137  RH  068%=      5-min Rain = 0
KSC1 160616Z 12008KT 20/14 A30 RMK A01 T01960137  RH  069%=      5-min Rain = 0
KSC1 160617Z 11010KT 20/14 A30 RMK A01 T01960137  RH  069%=      5-min Rain = 0
KSC1 160618Z 12009KT 20/14 A30 RMK A01 T01960137  RH  069%=      5-min Rain = 0
KSC1 160619Z 11009KT 20/14 A30 RMK A01 T01960137  RH  069%=      5-min Rain = 0
KSC1 160620Z 11009KT 20/14 A30 RMK A01 T01960137  RH  069%=      5-min Rain = 0
KSC1 160621Z 11009KT 20/14 A30 RMK A01 T01960137  RH  069%=      5-min Rain = 0
KSC1 160622Z 12009KT 20/14 A30 RMK A01 T01960137  RH  069%=      5-min Rain = 0
KSC1 160623Z 12008KT 20/14 A30 RMK A01 T01960137  RH  069%=      5-min Rain = 0
KSC1 160624Z 12008KT 20/14 A30 RMK A01 T01950138  RH  069%=      5-min Rain = 0
KSC1 160625Z 12008KT 20/14 A30 RMK A01 T01950137  RH  069%=      5-min Rain = 0
KSC1 160626Z 12008KT 20/14 A30 RMK A01 T01950137  RH  069%=      5-min Rain = 0
KSC1 160627Z 12006KT 20/14 A30 RMK A01 T01950138  RH  070%=      5-min Rain = 0
KSC1 160628Z 12008KT 19/14 A30 RMK A01 T01940138  RH  070%=      5-min Rain = 0
KSC1 160629Z 11010G15KT 19/14 A30 RMK A01 T01940137  RH  070%=      5-min Rain = 0
KSC1 160630Z 12011KT 19/14 A30 RMK A01 T01940136  RH  069%=      5-min Rain = 0
KSC1 160631Z 12009KT 20/14 A30 RMK A01 T01950137  RH  069%=      5-min Rain = 0
KSC1 160632Z 11008KT 20/14 A30 RMK A01 T01950137  RH  069%=      5-min Rain = 0
KSC1 160633Z 11008KT 20/14 A30 RMK A01 T01950138  RH  070%=      5-min Rain = 0
KSC1 160634Z 11009KT 19/14 A2999 RMK A01 T01940138  RH  070%=      5-min Rain = 0
KSC1 160635Z 11007KT 19/14 A2999 RMK A01 T01940138  RH  070%=      5-min Rain = 0
KSC1 160636Z 10008KT 19/14 A2999 RMK A01 T01940139  RH  071%=      5-min Rain = 0
KSC1 160637Z 11010KT 19/14 A2999 RMK A01 T01930139  RH  071%=      5-min Rain = 0
KSC1 160638Z 11008KT 19/14 A2999 RMK A01 T01930139  RH  071%=      5-min Rain = 0
KSC1 160639Z 11010KT 19/14 A2999 RMK A01 T01930139  RH  071%=      5-min Rain = 0
KSC1 160640Z 11010KT 19/14 A2999 RMK A01 T01930139  RH  071%=      5-min Rain = 0
KSC1 160641Z 11012KT 19/14 A2999 RMK A01 T01930139  RH  071%=      5-min Rain = 0
KSC1 160642Z 11010KT 19/14 A2999 RMK A01 T01930139  RH  071%=      5-min Rain = 0
KSC1 160643Z 11009KT 19/14 A2999 RMK A01 T01930139  RH  071%=      5-min Rain = 0
KSC1 160644Z 12008KT 19/14 A2999 RMK A01 T01930139  RH  071%=      5-min Rain = 0
KSC1 160645Z 12009KT 19/14 A2999 RMK A01 T01930140  RH  071%=      5-min Rain = 0
KSC1 160646Z 12009KT 19/14 A2999 RMK A01 T01930139  RH  071%=      5-min Rain = 0
KSC1 160647Z 12010KT 19/14 A2999 RMK A01 T01930140  RH  071%=      5-min Rain = 0
KSC1 160648Z 11007KT 19/14 A2999 RMK A01 T01930140  RH  071%=      5-min Rain = 0
KSC1 160649Z 11008KT 19/14 A2999 RMK A01 T01930140  RH  072%=      5-min Rain = 0
KSC1 160650Z 11009KT 19/14 A2999 RMK A01 T01920140  RH  072%=      5-min Rain = 0
KSC1 160651Z 11008KT 19/14 A2999 RMK A01 T01920140  RH  072%=      5-min Rain = 0
KSC1 160652Z 11006KT 19/14 A2999 RMK A01 T01920141  RH  072%=      5-min Rain = 0
KSC1 160653Z 11008KT 19/14 A2999 RMK A01 T01910140  RH  072%=      5-min Rain = 0
KSC1 160654Z 11008KT 19/14 A2999 RMK A01 T01910140  RH  072%=      5-min Rain = 0
KSC1 160655Z 11006KT 19/14 A2999 RMK A01 T01910140  RH  072%=      5-min Rain = 0
KSC1 160656Z 10007KT 19/14 A2999 RMK A01 T01910141  RH  073%=      5-min Rain = 0
KSC1 160657Z 11007KT 19/14 A2998 RMK A01 T01910141  RH  073%=      5-min Rain = 0
KSC1 160658Z 11006KT 19/14 A2998 RMK A01 T01910141  RH  073%=      5-min Rain = 0
KSC1 160659Z 11007KT 19/14 A2998 RMK A01 T01910141  RH  073%=      5-min Rain = 0
KSC1 160700Z 11007KT 19/14 A2998 RMK A01 T01910141  RH  073%=      5-min Rain = 0
KSC1 160701Z 12008KT 19/14 A2998 RMK A01 T01900141  RH  073%=      5-min Rain = 0
KSC1 160702Z 12006KT 19/14 A2998 RMK A01 T01900141  RH  073%=      5-min Rain = 0
KSC1 160703Z 12007KT 19/14 A2998 RMK A01 T01900142  RH  073%=      5-min Rain = 0
KSC1 160704Z 13006KT 19/14 A2998 RMK A01 T01900141  RH  073%=      5-min Rain = 0
KSC1 160705Z 13007KT 19/14 A2997 RMK A01 T01900141  RH  073%=      5-min Rain = 0
KSC1 160706Z 14006KT 19/14 A2997 RMK A01 T01900141  RH  073%=      5-min Rain = 0
KSC1 160707Z 14005KT 19/14 A2997 RMK A01 T01900141  RH  073%=      5-min Rain = 0
KSC1 160708Z 13005KT 19/14 A2997 RMK A01 T01900141  RH  073%=      5-min Rain = 0
KSC1 160709Z 13007KT 19/14 A2997 RMK A01 T01900141  RH  074%=      5-min Rain = 0
KSC1 160710Z 13006KT 19/14 A2997 RMK A01 T01890141  RH  074%=      5-min Rain = 0
KSC1 160711Z 12008KT 19/14 A2997 RMK A01 T01890142  RH  074%=      5-min Rain = 0
KSC1 160712Z 12009KT 19/14 A2997 RMK A01 T01890141  RH  074%=      5-min Rain = 0
KSC1 160713Z 12008KT 19/14 A2997 RMK A01 T01890141  RH  074%=      5-min Rain = 0
KSC1 160714Z 13006KT 19/14 A2997 RMK A01 T01890141  RH  074%=      5-min Rain = 0
KSC1 160715Z 12005KT 19/14 A2997 RMK A01 T01890141  RH  074%=      5-min Rain = 0
KSC1 160716Z 13007KT 19/14 A2996 RMK A01 T01900142  RH  074%=      5-min Rain = 0
KSC1 160717Z 13008KT 19/14 A2996 RMK A01 T01900142  RH  074%=      5-min Rain = 0
KSC1 160718Z 13007KT 19/14 A2996 RMK A01 T01900142  RH  074%=      5-min Rain = 0
KSC1 160719Z 13007KT 19/14 A2996 RMK A01 T01890142  RH  074%=      5-min Rain = 0
KSC1 160720Z 13007KT 19/14 A2996 RMK A01 T01900142  RH  074%=      5-min Rain = 0
KSC1 160721Z 14007KT 19/14 A2996 RMK A01 T01890142  RH  074%=      5-min Rain = 0
KSC1 160722Z 14007KT 19/14 A2996 RMK A01 T01900143  RH  074%=      5-min Rain = 0
KSC1 160723Z 14007KT 19/14 A2996 RMK A01 T01890142  RH  074%=      5-min Rain = 0
KSC1 160724Z 14007KT 19/14 A2996 RMK A01 T01890142  RH  074%=      5-min Rain = 0
KSC1 160725Z 13007KT 19/14 A2996 RMK A01 T01890142  RH  074%=      5-min Rain = 0
KSC1 160726Z 13006KT 19/14 A2996 RMK A01 T01890143  RH  074%=      5-min Rain = 0
KSC1 160727Z 13006KT 19/14 A2996 RMK A01 T01890143  RH  075%=      5-min Rain = 0
KSC1 160728Z 13008KT 19/14 A2996 RMK A01 T01890143  RH  075%=      5-min Rain = 0
KSC1 160729Z 13006KT 19/14 A2996 RMK A01 T01890143  RH  074%=      5-min Rain = 0
KSC1 160730Z 13008KT 19/14 A2996 RMK A01 T01890143  RH  075%=      5-min Rain = 0
KSC1 160731Z 12006KT 19/14 A2996 RMK A01 T01890143  RH  075%=      5-min Rain = 0
KSC1 160732Z 12007KT 19/14 A2996 RMK A01 T01890143  RH  075%=      5-min Rain = 0
KSC1 160733Z 11006KT 19/14 A2996 RMK A01 T01890144  RH  075%=      5-min Rain = 0
KSC1 160734Z 11007KT 19/14 A2996 RMK A01 T01880144  RH  075%=      5-min Rain = 0
KSC1 160735Z 11006KT 19/14 A2996 RMK A01 T01880144  RH  075%=      5-min Rain = 0
KSC1 160736Z 11007KT 19/14 A2996 RMK A01 T01880144  RH  076%=      5-min Rain = 0
KSC1 160737Z 11008KT 19/14 A2996 RMK A01 T01880144  RH  076%=      5-min Rain = 0
KSC1 160738Z 11007KT 19/14 A2996 RMK A01 T01880144  RH  076%=      5-min Rain = 0
KSC1 160739Z 12007KT 19/14 A2996 RMK A01 T01880144  RH  076%=      5-min Rain = 0
KSC1 160740Z 13008KT 19/14 A2996 RMK A01 T01880144  RH  076%=      5-min Rain = 0
KSC1 160741Z 12009KT 19/14 A2996 RMK A01 T01880144  RH  076%=      5-min Rain = 0
KSC1 160742Z 12007KT 19/14 A2996 RMK A01 T01880144  RH  076%=      5-min Rain = 0
KSC1 160743Z 12007KT 19/14 A2996 RMK A01 T01880144  RH  075%=      5-min Rain = 0
KSC1 160744Z 12006KT 19/14 A2996 RMK A01 T01880144  RH  076%=      5-min Rain = 0
KSC1 160745Z 13006KT 19/14 A2996 RMK A01 T01880144  RH  076%=      5-min Rain = 0
KSC1 160746Z 12005KT 19/14 A2996 RMK A01 T01880144  RH  076%=      5-min Rain = 0
KSC1 160747Z 12005KT 19/15 A2996 RMK A01 T01880145  RH  076%=      5-min Rain = 0
KSC1 160748Z 12006KT 19/15 A2996 RMK A01 T01880145  RH  076%=      5-min Rain = 0
KSC1 160749Z 12006KT 19/15 A2996 RMK A01 T01880145  RH  076%=      5-min Rain = 0
KSC1 160750Z 13005KT 19/15 A2997 RMK A01 T01880145  RH  076%=      5-min Rain = 0
KSC1 160751Z 13004KT 19/15 A2997 RMK A01 T01880145  RH  076%=      5-min Rain = 0
KSC1 160752Z 13003KT 19/15 A2997 RMK A01 T01880145  RH  076%=      5-min Rain = 0
KSC1 160753Z 13004KT 19/15 A2997 RMK A01 T01880145  RH  076%=      5-min Rain = 0
KSC1 160754Z 12003KT 19/15 A2997 RMK A01 T01880145  RH  076%=      5-min Rain = 0
KSC1 160755Z 12004KT 19/15 A2997 RMK A01 T01870145  RH  076%=      5-min Rain = 0
KSC1 160756Z 10005KT 19/15 A2997 RMK A01 T01870145  RH  077%=      5-min Rain = 0
KSC1 160757Z 11004KT 19/15 A2997 RMK A01 T01870145  RH  077%=      5-min Rain = 0
KSC1 160758Z 10004KT 19/15 A2997 RMK A01 T01860146  RH  077%=      5-min Rain = 0
KSC1 160759Z 10004KT 19/15 A2997 RMK A01 T01860145  RH  077%=      5-min Rain = 0
KSC1 160800Z 10004KT 19/15 A2997 RMK A01 T01860145  RH  077%=      5-min Rain = 0
KSC1 160801Z 10004KT 19/15 A2997 RMK A01 T01860145  RH  077%=      5-min Rain = 0
KSC1 160802Z 09003KT 19/15 A2997 RMK A01 T01860145  RH  077%=      5-min Rain = 0
KSC1 160803Z 09003KT 19/15 A2997 RMK A01 T01860145  RH  077%=      5-min Rain = 0
KSC1 160804Z 08004KT 19/15 A2997 RMK A01 T01860145  RH  077%=      5-min Rain = 0
KSC1 160805Z 09004KT 19/15 A2996 RMK A01 T01860145  RH  077%=      5-min Rain = 0
KSC1 160806Z 09004KT 19/15 A2996 RMK A01 T01850145  RH  077%=      5-min Rain = 0
KSC1 160807Z 09004KT 19/15 A2996 RMK A01 T01850146  RH  078%=      5-min Rain = 0
KSC1 160808Z 09004KT 19/15 A2997 RMK A01 T01850146  RH  078%=      5-min Rain = 0
KSC1 160809Z 09004KT 18/15 A2997 RMK A01 T01840146  RH  078%=      5-min Rain = 0
KSC1 160810Z 08003KT 18/15 A2997 RMK A01 T01840146  RH  078%=      5-min Rain = 0
KSC1 160811Z 08003KT 18/15 A2997 RMK A01 T01840146  RH  078%=      5-min Rain = 0
KSC1 160812Z 07002KT 18/15 A2997 RMK A01 T01840146  RH  078%=      5-min Rain = 0
KSC1 160813Z 06002KT 18/15 A2997 RMK A01 T01840146  RH  079%=      5-min Rain = 0
KSC1 160814Z 05003KT 18/15 A2997 RMK A01 T01830147  RH  079%=      5-min Rain = 0
KSC1 160815Z 04003KT 18/15 A2997 RMK A01 T01830147  RH  079%=      5-min Rain = 0
KSC1 160816Z 02003KT 18/15 A2997 RMK A01 T01820147  RH  080%=      5-min Rain = 0
KSC1 160817Z 02004KT 18/15 A2997 RMK A01 T01820147  RH  080%=      5-min Rain = 0
KSC1 160818Z 03005KT 18/15 A2997 RMK A01 T01810147  RH  081%=      5-min Rain = 0
KSC1 160819Z 04005KT 18/15 A2998 RMK A01 T01800148  RH  081%=      5-min Rain = 0
KSC1 160820Z 03005KT 18/15 A2998 RMK A01 T01790148  RH  082%=      5-min Rain = 0
KSC1 160821Z 03006KT 18/15 A2998 RMK A01 T01790148  RH  082%=      5-min Rain = 0
KSC1 160822Z 03005KT 18/15 A2998 RMK A01 T01780148  RH  083%=      5-min Rain = 0
KSC1 160823Z 03005KT 18/15 A2998 RMK A01 T01780148  RH  083%=      5-min Rain = 0
KSC1 160824Z 02006KT 18/15 A2998 RMK A01 T01780149  RH  083%=      5-min Rain = 0
KSC1 160825Z 02006KT 18/15 A2999 RMK A01 T01780150  RH  084%=      5-min Rain = 0
KSC1 160826Z 02007KT 18/15 A2999 RMK A01 T01770150  RH  084%=      5-min Rain = 0
KSC1 160827Z 03007KT 18/15 A2999 RMK A01 T01770150  RH  084%=      5-min Rain = 0
KSC1 160828Z 03006KT 18/15 A30 RMK A01 T01770150  RH  084%=      5-min Rain = 0
KSC1 160829Z 02006KT 18/15 A30 RMK A01 T01780150  RH  084%=      5-min Rain = 0
KSC1 160830Z 03007KT 18/15 A30 RMK A01 T01780150  RH  084%=      5-min Rain = 0
KSC1 160831Z 03006KT 18/15 A30 RMK A01 T01790150  RH  083%=      5-min Rain = 0
KSC1 160832Z 03007KT 18/15 A30 RMK A01 T01790150  RH  083%=      5-min Rain = 0
KSC1 160833Z 04007KT 18/15 A30 RMK A01 T01800150  RH  083%=      5-min Rain = 0
KSC1 160834Z 04008KT 18/15 A30 RMK A01 T01810150  RH  082%=      5-min Rain = 0
KSC1 160835Z 04007KT 18/15 A30 RMK A01 T01820150  RH  082%=      5-min Rain = 0
KSC1 160836Z 05008KT 18/15 A30 RMK A01 T01830150  RH  081%=      5-min Rain = 0
KSC1 160837Z 05006KT 18/15 A30 RMK A01 T01840150  RH  081%=      5-min Rain = 0
KSC1 160838Z 05006KT 18/15 A30 RMK A01 T01840150  RH  080%=      5-min Rain = 0
KSC1 160839Z 05005KT 19/15 A30 RMK A01 T01850150  RH  080%=      5-min Rain = 0
KSC1 160840Z 06006KT 19/15 A30 RMK A01 T01850149  RH  079%=      5-min Rain = 0
KSC1 160841Z 07005KT 19/15 A30 RMK A01 T01860149  RH  079%=      5-min Rain = 0
KSC1 160842Z 07006KT 19/15 A30 RMK A01 T01870147  RH  078%=      5-min Rain = 0
KSC1 160843Z 08005KT 19/15 A30 RMK A01 T01880147  RH  077%=      5-min Rain = 0
KSC1 160844Z 09005KT 19/15 A30 RMK A01 T01890148  RH  077%=      5-min Rain = 0
KSC1 160845Z 09005KT 19/15 A30 RMK A01 T01890148  RH  077%=      5-min Rain = 0
KSC1 160846Z 07005KT 19/15 A30 RMK A01 T01890149  RH  078%=      5-min Rain = 0
KSC1 160847Z 07004KT 19/15 A30 RMK A01 T01890149  RH  078%=      5-min Rain = 0
KSC1 160848Z 07004KT 19/15 A30 RMK A01 T01880150  RH  078%=      5-min Rain = 0
KSC1 160849Z 08005KT 19/15 A30 RMK A01 T01880149  RH  078%=      5-min Rain = 0
KSC1 160850Z 08004KT 19/15 A3001 RMK A01 T01870149  RH  078%=      5-min Rain = 0
KSC1 160851Z 07004KT 19/15 A3001 RMK A01 T01870150  RH  079%=      5-min Rain = 0
KSC1 160852Z 07005KT 19/15 A3001 RMK A01 T01870150  RH  079%=      5-min Rain = 0
KSC1 160853Z 06005KT 19/15 A3001 RMK A01 T01870150  RH  079%=      5-min Rain = 0
KSC1 160854Z 07005KT 19/15 A3001 RMK A01 T01870150  RH  079%=      5-min Rain = 0
KSC1 160855Z 07005KT 19/15 A3002 RMK A01 T01870150  RH  079%=      5-min Rain = 0
KSC1 160856Z 07005KT 19/15 A3002 RMK A01 T01870150  RH  079%=      5-min Rain = 0
KSC1 160857Z 07006KT 19/15 A3002 RMK A01 T01870149  RH  078%=      5-min Rain = 0
KSC1 160858Z 07006KT 19/15 A3002 RMK A01 T01880148  RH  078%=      5-min Rain = 0
KSC1 160859Z 07004KT 19/15 A3002 RMK A01 T01900149  RH  077%=      5-min Rain = 0
KSC1 160900Z 07005KT 19/15 A3002 RMK A01 T01900149  RH  077%=      5-min Rain = 0
KSC1 160901Z 07005KT 19/15 A3002 RMK A01 T01900148  RH  077%=      5-min Rain = 0
KSC1 160902Z 06006KT 19/15 A3002 RMK A01 T01910149  RH  077%=      5-min Rain = 0
KSC1 160903Z 07005KT 19/15 A3001 RMK A01 T01900148  RH  076%=      5-min Rain = 0
KSC1 160904Z 08005KT 19/15 A3001 RMK A01 T01910148  RH  076%=      5-min Rain = 0
KSC1 160905Z 09006KT 19/15 A3001 RMK A01 T01910148  RH  076%=      5-min Rain = 0
KSC1 160906Z 09007KT 19/15 A3001 RMK A01 T01910147  RH  076%=      5-min Rain = 0
KSC1 160907Z 09006KT 19/15 A3001 RMK A01 T01920147  RH  075%=      5-min Rain = 0
KSC1 160908Z 09007KT 19/15 A3001 RMK A01 T01920148  RH  075%=      5-min Rain = 0
KSC1 160909Z 10006KT 19/15 A3001 RMK A01 T01930147  RH  075%=      5-min Rain = 0
KSC1 160910Z 10006KT 19/15 A3001 RMK A01 T01930148  RH  075%=      5-min Rain = 0
KSC1 160911Z 10006KT 19/15 A30 RMK A01 T01930147  RH  075%=      5-min Rain = 0
KSC1 160912Z 11007KT 19/15 A30 RMK A01 T01940148  RH  075%=      5-min Rain = 0
KSC1 160913Z 11007KT 19/15 A30 RMK A01 T01940147  RH  074%=      5-min Rain = 0
KSC1 160914Z 10007KT 19/15 A30 RMK A01 T01940147  RH  074%=      5-min Rain = 0
KSC1 160915Z 10007KT 20/15 A30 RMK A01 T01950147  RH  074%=      5-min Rain = 0
KSC1 160916Z 11008KT 20/15 A30 RMK A01 T01960147  RH  074%=      5-min Rain = 0
KSC1 160917Z 11008KT 20/15 A30 RMK A01 T01960147  RH  073%=      5-min Rain = 0
KSC1 160918Z 12009KT 20/15 A30 RMK A01 T01970146  RH  073%=      5-min Rain = 0
KSC1 160919Z 12008KT 20/15 A30 RMK A01 T01970146  RH  072%=      5-min Rain = 0
KSC1 160920Z 11009KT 20/15 A30 RMK A01 T01980145  RH  072%=      5-min Rain = 0
KSC1 160921Z 10006KT 20/15 A30 RMK A01 T01980146  RH  072%=      5-min Rain = 0
KSC1 160922Z 10007KT 20/15 A30 RMK A01 T01990147  RH  072%=      5-min Rain = 0
KSC1 160923Z 10008KT 20/15 A30 RMK A01 T01980146  RH  072%=      5-min Rain = 0
KSC1 160924Z 10007KT 20/15 A30 RMK A01 T01980145  RH  072%=      5-min Rain = 0
KSC1 160925Z 10007KT 20/15 A30 RMK A01 T01980145  RH  071%=      5-min Rain = 0
KSC1 160926Z 10007KT 20/15 A30 RMK A01 T01990145  RH  071%=      5-min Rain = 0
KSC1 160927Z 09007KT 20/15 A30 RMK A01 T01990145  RH  071%=      5-min Rain = 0
KSC1 160928Z 09007KT 20/15 A30 RMK A01 T01990145  RH  071%=      5-min Rain = 0
KSC1 160929Z 09005KT 20/15 A30 RMK A01 T01990146  RH  072%=      5-min Rain = 0
KSC1 160930Z 09005KT 20/15 A3001 RMK A01 T01990147  RH  072%=      5-min Rain = 0
KSC1 160931Z 09006KT 20/15 A3001 RMK A01 T01980146  RH  072%=      5-min Rain = 0
KSC1 160932Z 09006KT 20/15 A3001 RMK A01 T01980146  RH  072%=      5-min Rain = 0
KSC1 160933Z 09005KT 20/15 A3001 RMK A01 T01980146  RH  072%=      5-min Rain = 0
KSC1 160934Z 09006KT 20/15 A3001 RMK A01 T01980146  RH  072%=      5-min Rain = 0
KSC1 160935Z 08005KT 20/15 A3001 RMK A01 T01980146  RH  072%=      5-min Rain = 0
KSC1 160936Z 08005KT 20/15 A3001 RMK A01 T01980147  RH  072%=      5-min Rain = 0
KSC1 160937Z 08005KT 20/15 A3001 RMK A01 T01980147  RH  072%=      5-min Rain = 0
KSC1 160938Z 09006KT 20/15 A3001 RMK A01 T01980146  RH  072%=      5-min Rain = 0
KSC1 160939Z 09006KT 20/15 A3001 RMK A01 T01980146  RH  072%=      5-min Rain = 0
KSC1 160940Z 10005KT 20/15 A3001 RMK A01 T01980146  RH  072%=      5-min Rain = 0
KSC1 160941Z 11005KT 20/15 A3001 RMK A01 T01980146  RH  072%=      5-min Rain = 0
KSC1 160942Z 11005KT 20/15 A3001 RMK A01 T01980146  RH  072%=      5-min Rain = 0
KSC1 160943Z 11004KT 20/15 A3001 RMK A01 T01990147  RH  072%=      5-min Rain = 0
KSC1 160944Z 11005KT 20/15 A3001 RMK A01 T01990147  RH  072%=      5-min Rain = 0
KSC1 160945Z 11004KT 20/15 A3001 RMK A01 T01990147  RH  072%=      5-min Rain = 0
KSC1 160946Z 10005KT 20/15 A3002 RMK A01 T01990148  RH  072%=      5-min Rain = 0
KSC1 160947Z 09006KT 20/15 A3002 RMK A01 T01990148  RH  073%=      5-min Rain = 0
KSC1 160948Z 08004KT 20/15 A3002 RMK A01 T01990148  RH  072%=      5-min Rain = 0
KSC1 160949Z 08005KT 20/15 A3002 RMK A01 T01990148  RH  072%=      5-min Rain = 0
KSC1 160950Z 08005KT 20/15 A3002 RMK A01 T01990147  RH  072%=      5-min Rain = 0
KSC1 160951Z 07005KT 20/15 A3002 RMK A01 T01990148  RH  072%=      5-min Rain = 0
KSC1 160952Z 07005KT 20/15 A3002 RMK A01 T01990148  RH  073%=      5-min Rain = 0
KSC1 160953Z 06005KT 20/15 A3002 RMK A01 T01990150  RH  073%=      5-min Rain = 0
KSC1 160954Z 06004KT 20/15 A3002 RMK A01 T01990150  RH  073%=      5-min Rain = 0
KSC1 160955Z 07005KT 20/15 A3002 RMK A01 T01990150  RH  074%=      5-min Rain = 0
KSC1 160956Z 07005KT 20/15 A3002 RMK A01 T01980150  RH  074%=      5-min Rain = 0
KSC1 160957Z 06004KT 20/15 A3003 RMK A01 T01980150  RH  074%=      5-min Rain = 0
KSC1 160958Z 05006KT 20/15 A3003 RMK A01 T01980151  RH  074%=      5-min Rain = 0
KSC1 160959Z 06005KT 20/15 A3003 RMK A01 T01980151  RH  074%=      5-min Rain = 0
KSC1 161000Z 05005KT 20/15 A3003 RMK A01 T01980151  RH  074%=      5-min Rain = 0
KSC1 161001Z 04006KT 20/15 A3003 RMK A01 T01980152  RH  074%=      5-min Rain = 0
KSC1 161002Z 05006KT 20/15 A3003 RMK A01 T01980152  RH  074%=      5-min Rain = 0
KSC1 161003Z 05006KT 20/15 A3003 RMK A01 T01980152  RH  075%=      5-min Rain = 0
KSC1 161004Z 05007KT 20/15 A3003 RMK A01 T01980152  RH  075%=      5-min Rain = 0
KSC1 161005Z 05006KT 20/15 A3003 RMK A01 T01980152  RH  075%=      5-min Rain = 0
KSC1 161006Z 05007KT 20/15 A3003 RMK A01 T01980152  RH  075%=      5-min Rain = 0
KSC1 161007Z 06005KT 20/15 A3003 RMK A01 T01980153  RH  075%=      5-min Rain = 0
KSC1 161008Z 06005KT 20/15 A3003 RMK A01 T01980153  RH  075%=      5-min Rain = 0
KSC1 161009Z 07006G11KT 20/15 A3003 RMK A01 T01980153  RH  075%=      5-min Rain = 0
KSC1 161010Z 07008KT 20/15 A3003 RMK A01 T01980153  RH  075%=      5-min Rain = 0
KSC1 161011Z 07007KT 20/15 A3003 RMK A01 T01980153  RH  075%=      5-min Rain = 0
KSC1 161012Z 09008KT 20/15 A3003 RMK A01 T01980153  RH  075%=      5-min Rain = 0
KSC1 161013Z 09008KT 20/15 A3003 RMK A01 T01980153  RH  075%=      5-min Rain = 0
KSC1 161014Z 09008KT 20/15 A3002 RMK A01 T01980152  RH  075%=      5-min Rain = 0
KSC1 161015Z 09007KT 20/15 A3002 RMK A01 T01980153  RH  075%=      5-min Rain = 0
KSC1 161016Z 10007KT 20/15 A3002 RMK A01 T01980153  RH  075%=      5-min Rain = 0
KSC1 161017Z 11008KT 20/15 A3001 RMK A01 T01970154  RH  076%=      5-min Rain = 0
KSC1 161018Z 12009KT 20/15 A3001 RMK A01 T01970154  RH  076%=      5-min Rain = 0
KSC1 161019Z 11010KT 20/15 A3001 RMK A01 T01960154  RH  076%=      5-min Rain = 0
KSC1 161020Z 11009KT 20/15 A3001 RMK A01 T01960153  RH  076%=      5-min Rain = 0
KSC1 161021Z 11009KT 20/15 A3001 RMK A01 T01960154  RH  076%=      5-min Rain = 0
KSC1 161022Z 11009KT 20/15 A30 RMK A01 T01960153  RH  076%=      5-min Rain = 0
KSC1 161023Z 11010KT 20/15 A30 RMK A01 T01960152  RH  076%=      5-min Rain = 0
KSC1 161024Z 11010KT 20/15 A30 RMK A01 T01960152  RH  076%=      5-min Rain = 0
KSC1 161025Z 11010KT 20/15 A30 RMK A01 T01960152  RH  076%=      5-min Rain = 0
KSC1 161026Z 11010KT 20/15 A30 RMK A01 T01950151  RH  075%=      5-min Rain = 0
KSC1 161027Z 12009KT 20/15 A30 RMK A01 T01960151  RH  076%=      5-min Rain = 0
KSC1 161028Z 11009KT 20/15 A30 RMK A01 T01960152  RH  076%=      5-min Rain = 0
KSC1 161029Z 11011KT 20/15 A3001 RMK A01 T01950151  RH  076%=      5-min Rain = 0
KSC1 161030Z 11008KT 20/15 A3001 RMK A01 T01950150  RH  075%=      5-min Rain = 0
KSC1 161031Z 11009KT 20/15 A3001 RMK A01 T01960150  RH  075%=      5-min Rain = 0
KSC1 161032Z 11008KT 20/15 A3001 RMK A01 T01950150  RH  075%=      5-min Rain = 0
KSC1 161033Z 11008KT 20/15 A3001 RMK A01 T01960150  RH  075%=      5-min Rain = 0
KSC1 161034Z 11007KT 20/15 A3001 RMK A01 T01960149  RH  075%=      5-min Rain = 0
KSC1 161035Z 10007KT 20/15 A3001 RMK A01 T01950149  RH  075%=      5-min Rain = 0
KSC1 161036Z 10007KT 20/15 A3001 RMK A01 T01950149  RH  075%=      5-min Rain = 0
KSC1 161037Z 10006KT 20/15 A3001 RMK A01 T01960149  RH  074%=      5-min Rain = 0
KSC1 161038Z 10007KT 20/15 A3002 RMK A01 T01960149  RH  075%=      5-min Rain = 0
KSC1 161039Z 10007KT 20/15 A3001 RMK A01 T01950149  RH  075%=      5-min Rain = 0
KSC1 161040Z 10007KT 20/15 A3001 RMK A01 T01950150  RH  075%=      5-min Rain = 0
KSC1 161041Z 10006KT 20/15 A3001 RMK A01 T01950150  RH  075%=      5-min Rain = 0
KSC1 161042Z 11007KT 19/15 A3001 RMK A01 T01940150  RH  075%=      5-min Rain = 0
KSC1 161043Z 11008KT 19/15 A3001 RMK A01 T01940150  RH  075%=      5-min Rain = 0
KSC1 161044Z 11007KT 19/15 A3001 RMK A01 T01940150  RH  075%=      5-min Rain = 0
KSC1 161045Z 12008KT 19/15 A3001 RMK A01 T01940149  RH  075%=      5-min Rain = 0
KSC1 161046Z 12009KT 19/15 A3001 RMK A01 T01940149  RH  075%=      5-min Rain = 0
KSC1 161047Z 12010KT 19/15 A30 RMK A01 T01930148  RH  075%=      5-min Rain = 0
KSC1 161048Z 13008KT 19/15 A30 RMK A01 T01940147  RH  074%=      5-min Rain = 0
KSC1 161049Z 12010KT 19/15 A30 RMK A01 T01940147  RH  074%=      5-min Rain = 0
KSC1 161050Z 13010KT 19/15 A30 RMK A01 T01940146  RH  074%=      5-min Rain = 0
KSC1 161051Z 12011KT 20/15 A30 RMK A01 T01950146  RH  073%=      5-min Rain = 0
KSC1 161052Z 12012KT 20/15 A30 RMK A01 T01960145  RH  073%=      5-min Rain = 0
KSC1 161053Z 12012KT 20/15 A2999 RMK A01 T01960145  RH  072%=      5-min Rain = 0
KSC1 161054Z 12013KT 20/14 A2999 RMK A01 T01960143  RH  071%=      5-min Rain = 0
KSC1 161055Z 12012KT 20/14 A2999 RMK A01 T01970142  RH  070%=      5-min Rain = 0
KSC1 161056Z 12015G20KT 20/14 A2999 RMK A01 T01970139  RH  069%=      5-min Rain = 0
KSC1 161057Z 13014KT 20/14 A2999 RMK A01 T01990137  RH  067%=      5-min Rain = 0
KSC1 161058Z 12013KT 20/14 A2999 RMK A01 T02000137  RH  067%=      5-min Rain = 0
KSC1 161059Z 12016G21KT 20/14 A2999 RMK A01 T02010135  RH  066%=      5-min Rain = 0
KSC1 161100Z 12013G18KT 20/13 A2999 RMK A01 T02020133  RH  064%=      5-min Rain = 0
KSC1 161101Z 13016KT 20/13 A2999 RMK A01 T02020133  RH  064%=      5-min Rain = 0
KSC1 161102Z 13014KT 20/13 A2999 RMK A01 T02030132  RH  064%=      5-min Rain = 0
KSC1 161103Z 13015KT 20/13 A2999 RMK A01 T02020132  RH  064%=      5-min Rain = 0
KSC1 161104Z 13012KT 20/13 A2999 RMK A01 T02020131  RH  064%=      5-min Rain = 0
KSC1 161105Z 12014G19KT 20/13 A2999 RMK A01 T02020131  RH  063%=      5-min Rain = 0
KSC1 161106Z 13013KT 20/13 A2999 RMK A01 T02020129  RH  063%=      5-min Rain = 0
KSC1 161107Z 12013KT 20/13 A2999 RMK A01 T02020128  RH  063%=      5-min Rain = 0
KSC1 161108Z 13011G16KT 20/13 A2999 RMK A01 T02020128  RH  063%=      5-min Rain = 0
KSC1 161109Z 13015KT 20/13 A2999 RMK A01 T02010126  RH  062%=      5-min Rain = 0
KSC1 161110Z 12015KT 20/12 A2999 RMK A01 T02020124  RH  061%=      5-min Rain = 0
KSC1 161111Z 13012G17KT 20/12 A2999 RMK A01 T02030124  RH  060%=      5-min Rain = 0
KSC1 161112Z 13014KT 20/12 A2999 RMK A01 T02030123  RH  060%=      5-min Rain = 0
KSC1 161113Z 13014KT 20/12 A2999 RMK A01 T02030123  RH  060%=      5-min Rain = 0
KSC1 161114Z 12011G16KT 20/12 A30 RMK A01 T02030123  RH  060%=      5-min Rain = 0
KSC1 161115Z 13012KT 20/12 A30 RMK A01 T02030123  RH  060%=      5-min Rain = 0
KSC1 161116Z 13013KT 20/12 A30 RMK A01 T02020122  RH  060%=      5-min Rain = 0
KSC1 161117Z 13011KT 20/12 A30 RMK A01 T02020122  RH  060%=      5-min Rain = 0
KSC1 161118Z 13011KT 20/12 A30 RMK A01 T02020122  RH  060%=      5-min Rain = 0
KSC1 161119Z 13013G20KT 20/12 A2999 RMK A01 T02010122  RH  060%=      5-min Rain = 0
KSC1 161120Z 13014KT 20/12 A2999 RMK A01 T02010122  RH  060%=      5-min Rain = 0
KSC1 161121Z 13014KT 20/12 A2999 RMK A01 T02010122  RH  060%=      5-min Rain = 0
KSC1 161122Z 13014KT 20/12 A2999 RMK A01 T02010122  RH  061%=      5-min Rain = 0
KSC1 161123Z 14013G18KT 20/12 A2999 RMK A01 T02010123  RH  061%=      5-min Rain = 0
KSC1 161124Z 13015KT 20/12 A2999 RMK A01 T02010123  RH  061%=      5-min Rain = 0
KSC1 161125Z 14013KT 20/12 A2999 RMK A01 T02000122  RH  061%=      5-min Rain = 0
KSC1 161126Z 14014G20KT 20/12 A2999 RMK A01 T02000123  RH  061%=      5-min Rain = 0
KSC1 161127Z 14015G20KT 20/12 A2999 RMK A01 T02000123  RH  061%=      5-min Rain = 0
KSC1 161128Z 15017KT 20/12 A2999 RMK A01 T01990122  RH  061%=      5-min Rain = 0
KSC1 161129Z 14014KT 20/12 A2999 RMK A01 T01990122  RH  061%=      5-min Rain = 0
KSC1 161130Z 14012G17KT 20/12 A2999 RMK A01 T01990123  RH  061%=      5-min Rain = 0
KSC1 161131Z 15012KT 20/12 A2999 RMK A01 T01980123  RH  062%=      5-min Rain = 0
KSC1 161132Z 15014G21KT 20/12 A2999 RMK A01 T01980124  RH  062%=      5-min Rain = 0
KSC1 161133Z 15015G22KT 20/12 A2999 RMK A01 T01980124  RH  063%=      5-min Rain = 0
KSC1 161134Z 15014G20KT 20/12 A2999 RMK A01 T01970124  RH  062%=      5-min Rain = 0
KSC1 161135Z 15013G19KT 20/12 A2999 RMK A01 T01970124  RH  063%=      5-min Rain = 0
KSC1 161136Z 16014G19KT 20/12 A2999 RMK A01 T01970124  RH  063%=      5-min Rain = 0
KSC1 161137Z 16013KT 20/13 A2999 RMK A01 T01970125  RH  063%=      5-min Rain = 0
KSC1 161138Z 15013KT 20/13 A2999 RMK A01 T01970125  RH  063%=      5-min Rain = 0
KSC1 161139Z 16012KT 20/13 A2999 RMK A01 T01970125  RH  063%=      5-min Rain = 0
KSC1 161140Z 16013KT 20/13 A2999 RMK A01 T01970125  RH  063%=      5-min Rain = 0
KSC1 161141Z 16012KT 20/13 A2999 RMK A01 T01970125  RH  063%=      5-min Rain = 0
KSC1 161142Z 16013KT 20/13 A2998 RMK A01 T01970125  RH  063%=      5-min Rain = 0
KSC1 161143Z 15013KT 20/13 A2998 RMK A01 T01970125  RH  063%=      5-min Rain = 0
KSC1 161144Z 16013KT 20/13 A2998 RMK A01 T01970126  RH  063%=      5-min Rain = 0
KSC1 161145Z 16012KT 20/13 A2998 RMK A01 T01970126  RH  064%=      5-min Rain = 0
KSC1 161146Z 16012KT 20/13 A2998 RMK A01 T01960126  RH  064%=      5-min Rain = 0
KSC1 161147Z 16010KT 20/13 A2999 RMK A01 T01960126  RH  064%=      5-min Rain = 0
KSC1 161148Z 16010KT 20/13 A2999 RMK A01 T01960126  RH  064%=      5-min Rain = 0
KSC1 161149Z 16012KT 20/13 A2999 RMK A01 T01960126  RH  064%=      5-min Rain = 0
KSC1 161150Z 16011G17KT 20/13 A2999 RMK A01 T01960126  RH  064%=      5-min Rain = 0
KSC1 161151Z 16013G18KT 20/13 A2999 RMK A01 T01960125  RH  064%=      5-min Rain = 0
KSC1 161152Z 16014G20KT 20/12 A2999 RMK A01 T01970124  RH  063%=      5-min Rain = 0
KSC1 161153Z 16014KT 20/12 A2999 RMK A01 T01980124  RH  062%=      5-min Rain = 0
KSC1 161154Z 16013KT 20/12 A2998 RMK A01 T01990123  RH  062%=      5-min Rain = 0
KSC1 161155Z 15013G18KT 20/12 A2999 RMK A01 T01990123  RH  061%=      5-min Rain = 0
KSC1 161156Z 15012KT 20/12 A2999 RMK A01 T01990123  RH  061%=      5-min Rain = 0
KSC1 161157Z 16012KT 20/12 A2999 RMK A01 T01990122  RH  061%=      5-min Rain = 0
KSC1 161158Z 15011KT 20/12 A2998 RMK A01 T01990122  RH  061%=      5-min Rain = 0
KSC1 161159Z 16012KT 20/12 A2998 RMK A01 T01990122  RH  061%=      5-min Rain = 0
KSC1 161200Z 15012G19KT 20/12 A2998 RMK A01 T01990122  RH  061%=      5-min Rain = 0
KSC1 161201Z 15013G19KT 20/12 A2998 RMK A01 T01990122  RH  061%=      5-min Rain = 0
KSC1 161202Z 15014KT 20/12 A2998 RMK A01 T01990121  RH  061%=      5-min Rain = 0
KSC1 161203Z 15011KT 20/12 A2998 RMK A01 T02000121  RH  060%=      5-min Rain = 0
KSC1 161204Z 15014G19KT 20/12 A2998 RMK A01 T02000121  RH  060%=      5-min Rain = 0
KSC1 161205Z 14016KT 20/12 A2998 RMK A01 T02000120  RH  060%=      5-min Rain = 0
KSC1 161206Z 15012KT 20/12 A2998 RMK A01 T02010119  RH  059%=      5-min Rain = 0
KSC1 161207Z 15014KT 20/12 A2998 RMK A01 T02010120  RH  059%=      5-min Rain = 0
KSC1 161208Z 15012KT 20/12 A2998 RMK A01 T02010119  RH  059%=      5-min Rain = 0
KSC1 161209Z 15013KT 20/12 A2999 RMK A01 T02020120  RH  059%=      5-min Rain = 0
KSC1 161210Z 15014G20KT 20/12 A2999 RMK A01 T02010119  RH  059%=      5-min Rain = 0
KSC1 161211Z 15013KT 20/12 A2999 RMK A01 T02020119  RH  059%=      5-min Rain = 0
KSC1 161212Z 14011KT 20/12 A2999 RMK A01 T02020119  RH  059%=      5-min Rain = 0
KSC1 161213Z 14012KT 20/12 A2999 RMK A01 T02020120  RH  059%=      5-min Rain = 0
KSC1 161214Z 14014G19KT 20/12 A2999 RMK A01 T02020119  RH  059%=      5-min Rain = 0
KSC1 161215Z 14014KT 20/12 A2998 RMK A01 T02020118  RH  058%=      5-min Rain = 0
KSC1 161216Z 14011G16KT 20/12 A2998 RMK A01 T02030118  RH  058%=      5-min Rain = 0
KSC1 161217Z 14012KT 20/12 A2999 RMK A01 T02030119  RH  058%=      5-min Rain = 0
KSC1 161218Z 14013KT 20/12 A2999 RMK A01 T02030119  RH  058%=      5-min Rain = 0
KSC1 161219Z 14013KT 20/12 A2999 RMK A01 T02030119  RH  058%=      5-min Rain = 0
KSC1 161220Z 14012G18KT 20/12 A2999 RMK A01 T02030119  RH  058%=      5-min Rain = 0
KSC1 161221Z 13012G18KT 20/12 A2999 RMK A01 T02030119  RH  058%=      5-min Rain = 0
KSC1 161222Z 14011KT 20/12 A2999 RMK A01 T02030119  RH  058%=      5-min Rain = 0
KSC1 161223Z 13013KT 20/12 A2999 RMK A01 T02030119  RH  058%=      5-min Rain = 0
KSC1 161224Z 14010G16KT 20/12 A2999 RMK A01 T02040119  RH  058%=      5-min Rain = 0
KSC1 161225Z 13011KT 20/12 A30 RMK A01 T02040120  RH  059%=      5-min Rain = 0
KSC1 161226Z 13013KT 20/12 A30 RMK A01 T02040119  RH  058%=      5-min Rain = 0
KSC1 161227Z 14010KT 20/12 A30 RMK A01 T02040119  RH  058%=      5-min Rain = 0
KSC1 161228Z 13012KT 20/12 A30 RMK A01 T02040120  RH  058%=      5-min Rain = 0
KSC1 161229Z 14012KT 21/12 A30 RMK A01 T02050120  RH  058%=      5-min Rain = 0
KSC1 161230Z 14011G16KT 21/12 A30 RMK A01 T02050119  RH  058%=      5-min Rain = 0
KSC1 161231Z 14011KT 21/12 A30 RMK A01 T02050119  RH  058%=      5-min Rain = 0
KSC1 161232Z 14010KT 21/12 A30 RMK A01 T02060120  RH  058%=      5-min Rain = 0
KSC1 161233Z 13012KT 21/12 A30 RMK A01 T02060120  RH  058%=      5-min Rain = 0
KSC1 161234Z 13012KT 21/12 A30 RMK A01 T02060119  RH  058%=      5-min Rain = 0
KSC1 161235Z 13011KT 21/12 A30 RMK A01 T02060119  RH  058%=      5-min Rain = 0
KSC1 161236Z 13014KT 21/12 A30 RMK A01 T02070119  RH  057%=      5-min Rain = 0
KSC1 161237Z 13013G18KT 21/12 A30 RMK A01 T02070119  RH  057%=      5-min Rain = 0
KSC1 161238Z 13011KT 21/12 A30 RMK A01 T02070118  RH  057%=      5-min Rain = 0
KSC1 161239Z 14010KT 21/12 A30 RMK A01 T02080119  RH  057%=      5-min Rain = 0
KSC1 161240Z 14010KT 21/12 A30 RMK A01 T02080119  RH  057%=      5-min Rain = 0
KSC1 161241Z 14011KT 21/12 A30 RMK A01 T02080120  RH  057%=      5-min Rain = 0
KSC1 161242Z 13011KT 21/12 A30 RMK A01 T02080119  RH  057%=      5-min Rain = 0
KSC1 161243Z 13011KT 21/12 A30 RMK A01 T02080119  RH  057%=      5-min Rain = 0
KSC1 161244Z 13010G15KT 21/12 A30 RMK A01 T02080119  RH  057%=      5-min Rain = 0
KSC1 161245Z 13013KT 21/12 A30 RMK A01 T02090120  RH  057%=      5-min Rain = 0
KSC1 161246Z 13009KT 21/12 A30 RMK A01 T02090120  RH  056%=      5-min Rain = 0
KSC1 161247Z 13012KT 21/12 A30 RMK A01 T02090120  RH  057%=      5-min Rain = 0
KSC1 161248Z 13010KT 21/12 A30 RMK A01 T02090119  RH  056%=      5-min Rain = 0
KSC1 161249Z 13009KT 21/12 A30 RMK A01 T02100120  RH  056%=      5-min Rain = 0
KSC1 161250Z 12015KT 21/12 A30 RMK A01 T02100119  RH  056%=      5-min Rain = 0
KSC1 161251Z 12013KT 21/12 A30 RMK A01 T02110118  RH  055%=      5-min Rain = 0
KSC1 161252Z 13012KT 21/12 A30 RMK A01 T02110119  RH  055%=      5-min Rain = 0
KSC1 161253Z 12012KT 21/12 A30 RMK A01 T02120118  RH  055%=      5-min Rain = 0
KSC1 161254Z 12013KT 21/12 A3001 RMK A01 T02120118  RH  055%=      5-min Rain = 0
KSC1 161255Z 12013KT 21/12 A3001 RMK A01 T02130118  RH  054%=      5-min Rain = 0
KSC1 161256Z 11012KT 21/12 A3001 RMK A01 T02130118  RH  054%=      5-min Rain = 0
KSC1 161257Z 11010KT 21/12 A3001 RMK A01 T02140119  RH  055%=      5-min Rain = 0
KSC1 161258Z 11011KT 21/12 A3001 RMK A01 T02140118  RH  054%=      5-min Rain = 0
KSC1 161259Z 11012KT 21/12 A3001 RMK A01 T02140118  RH  054%=      5-min Rain = 0
KSC1 161300Z 10010KT 22/12 A3001 RMK A01 T02150118  RH  054%=      5-min Rain = 0
KSC1 161301Z 11010KT 22/12 A3001 RMK A01 T02150119  RH  054%=      5-min Rain = 0
KSC1 161302Z 10011KT 22/12 A3001 RMK A01 T02150119  RH  054%=      5-min Rain = 0
KSC1 161303Z 11011KT 22/12 A3001 RMK A01 T02160120  RH  054%=      5-min Rain = 0
KSC1 161304Z 11011KT 22/12 A3001 RMK A01 T02160119  RH  054%=      5-min Rain = 0
KSC1 161305Z 10011KT 22/12 A3001 RMK A01 T02160119  RH  054%=      5-min Rain = 0
KSC1 161306Z 11011KT 22/12 A3001 RMK A01 T02170119  RH  054%=      5-min Rain = 0
KSC1 161307Z 11011KT 22/12 A3001 RMK A01 T02170119  RH  054%=      5-min Rain = 0
KSC1 161308Z 11013KT 22/12 A3001 RMK A01 T02170120  RH  054%=      5-min Rain = 0
KSC1 161309Z 11011KT 22/12 A3001 RMK A01 T02170119  RH  053%=      5-min Rain = 0
KSC1 161310Z 11010KT 22/12 A3001 RMK A01 T02170119  RH  054%=      5-min Rain = 0
KSC1 161311Z 11012KT 22/12 A3001 RMK A01 T02180120  RH  054%=      5-min Rain = 0
KSC1 161312Z 12009KT 22/12 A3001 RMK A01 T02180119  RH  053%=      5-min Rain = 0
KSC1 161313Z 12011KT 22/12 A3001 RMK A01 T02180119  RH  053%=      5-min Rain = 0
KSC1 161314Z 12010KT 22/12 A3001 RMK A01 T02190119  RH  053%=      5-min Rain = 0
KSC1 161315Z 11008KT 22/12 A3001 RMK A01 T02190119  RH  053%=      5-min Rain = 0
KSC1 161316Z 12011KT 22/12 A3001 RMK A01 T02200120  RH  053%=      5-min Rain = 0
KSC1 161317Z 11008KT 22/12 A3002 RMK A01 T02210121  RH  053%=      5-min Rain = 0
KSC1 161318Z 10009KT 22/12 A3002 RMK A01 T02210122  RH  053%=      5-min Rain = 0
KSC1 161319Z 11008KT 22/12 A3002 RMK A01 T02210121  RH  053%=      5-min Rain = 0
KSC1 161320Z 10011KT 22/12 A3002 RMK A01 T02220121  RH  053%=      5-min Rain = 0
KSC1 161321Z 11010KT 22/12 A3002 RMK A01 T02220120  RH  052%=      5-min Rain = 0
KSC1 161322Z 10009KT 22/12 A3002 RMK A01 T02220120  RH  052%=      5-min Rain = 0
KSC1 161323Z 09008KT 22/12 A3002 RMK A01 T02230121  RH  052%=      5-min Rain = 0
KSC1 161324Z 10011KT 22/12 A3002 RMK A01 T02230120  RH  052%=      5-min Rain = 0
KSC1 161325Z 10010KT 22/12 A3002 RMK A01 T02230118  RH  052%=      5-min Rain = 0
KSC1 161326Z 10007KT 22/12 A3002 RMK A01 T02230119  RH  052%=      5-min Rain = 0
KSC1 161327Z 11008KT 22/12 A3002 RMK A01 T02230123  RH  053%=      5-min Rain = 0
KSC1 161328Z 10009KT 22/12 A3002 RMK A01 T02240122  RH  052%=      5-min Rain = 0
KSC1 161329Z 11009KT 23/12 A3002 RMK A01 T02250121  RH  052%=      5-min Rain = 0
KSC1 161330Z 11009KT 23/12 A3002 RMK A01 T02260121  RH  052%=      5-min Rain = 0
KSC1 161331Z 11008KT 23/12 A3002 RMK A01 T02250120  RH  051%=      5-min Rain = 0
KSC1 161332Z 11006KT 23/12 A3002 RMK A01 T02250120  RH  051%=      5-min Rain = 0
KSC1 161333Z 11005KT 23/12 A3002 RMK A01 T02260122  RH  052%=      5-min Rain = 0
KSC1 161334Z 10007KT 23/12 A3002 RMK A01 T02270122  RH  052%=      5-min Rain = 0
KSC1 161335Z 09008KT 23/12 A3002 RMK A01 T02270120  RH  051%=      5-min Rain = 0
KSC1 161336Z 09006KT 23/12 A3002 RMK A01 T02270122  RH  051%=      5-min Rain = 0
KSC1 161337Z 10006KT 23/12 A3002 RMK A01 T02280121  RH  051%=      5-min Rain = 0
KSC1 161338Z 09007KT 23/12 A3003 RMK A01 T02280121  RH  051%=      5-min Rain = 0
KSC1 161339Z 09007KT 23/12 A3003 RMK A01 T02290121  RH  051%=      5-min Rain = 0
KSC1 161340Z 09006KT 23/12 A3003 RMK A01 T02290122  RH  051%=      5-min Rain = 0
KSC1 161341Z 08006KT 23/12 A3003 RMK A01 T02300124  RH  051%=      5-min Rain = 0
KSC1 161342Z 08007KT 23/12 A3003 RMK A01 T02300124  RH  051%=      5-min Rain = 0
KSC1 161343Z 09008KT 23/12 A3003 RMK A01 T02310122  RH  050%=      5-min Rain = 0
KSC1 161344Z 08007KT 23/12 A3003 RMK A01 T02310122  RH  050%=      5-min Rain = 0
KSC1 161345Z 09008KT 23/12 A3003 RMK A01 T02310123  RH  051%=      5-min Rain = 0
KSC1 161346Z 09008KT 23/12 A3003 RMK A01 T02310122  RH  050%=      5-min Rain = 0
KSC1 161347Z 10008KT 23/12 A3003 RMK A01 T02320123  RH  050%=      5-min Rain = 0
KSC1 161348Z 09007KT 23/12 A3003 RMK A01 T02320121  RH  050%=      5-min Rain = 0
KSC1 161349Z 10009KT 23/12 A3003 RMK A01 T02330121  RH  049%=      5-min Rain = 0
KSC1 161350Z 09009KT 23/12 A3003 RMK A01 T02330120  RH  049%=      5-min Rain = 0
KSC1 161351Z 10007KT 23/12 A3003 RMK A01 T02340120  RH  049%=      5-min Rain = 0
KSC1 161352Z 10008KT 23/12 A3003 RMK A01 T02340119  RH  048%=      5-min Rain = 0
KSC1 161353Z 09008KT 24/12 A3003 RMK A01 T02360122  RH  049%=      5-min Rain = 0
KSC1 161354Z 09008KT 24/12 A3003 RMK A01 T02360119  RH  048%=      5-min Rain = 0
KSC1 161355Z 10010KT 24/12 A3003 RMK A01 T02360118  RH  047%=      5-min Rain = 0
KSC1 161356Z 11010KT 24/12 A3003 RMK A01 T02370115  RH  046%=      5-min Rain = 0
KSC1 161357Z 12010KT 24/12 A3003 RMK A01 T02370115  RH  046%=      5-min Rain = 0
KSC1 161358Z 10009KT 24/12 A3003 RMK A01 T02370115  RH  046%=      5-min Rain = 0
KSC1 161359Z 12009KT 24/12 A3003 RMK A01 T02380116  RH  046%=      5-min Rain = 0
KSC1 161400Z 11009KT 24/12 A3003 RMK A01 T02380115  RH  046%=      5-min Rain = 0
KSC1 161401Z 11008KT 24/12 A3003 RMK A01 T02390115  RH  046%=      5-min Rain = 0
KSC1 161402Z 10009KT 24/12 A3004 RMK A01 T02400115  RH  045%=      5-min Rain = 0
KSC1 161403Z 10008KT 24/12 A3004 RMK A01 T02410115  RH  045%=      5-min Rain = 0
KSC1 161404Z 10007KT 24/12 A3004 RMK A01 T02420116  RH  045%=      5-min Rain = 0
KSC1 161405Z 10008KT 24/12 A3004 RMK A01 T02440117  RH  045%=      5-min Rain = 0
KSC1 161406Z 08006KT 25/12 A3004 RMK A01 T02460120  RH  045%=      5-min Rain = 0
KSC1 161407Z 10008KT 25/12 A3004 RMK A01 T02470119  RH  045%=      5-min Rain = 0
KSC1 161408Z 07007KT 25/12 A3004 RMK A01 T02480121  RH  045%=      5-min Rain = 0
KSC1 161409Z 03005KT 25/13 A3004 RMK A01 T02470126  RH  047%=      5-min Rain = 0
KSC1 161410Z 05005KT 25/13 A3004 RMK A01 T02450127  RH  048%=      5-min Rain = 0
KSC1 161411Z 06005KT 25/13 A3004 RMK A01 T02450131  RH  049%=      5-min Rain = 0
KSC1 161412Z 06007KT 25/13 A3004 RMK A01 T02450127  RH  048%=      5-min Rain = 0
KSC1 161413Z 05006KT 25/13 A3004 RMK A01 T02450125  RH  047%=      5-min Rain = 0
KSC1 161414Z 05006KT 24/13 A3004 RMK A01 T02440128  RH  048%=      5-min Rain = 0
KSC1 161415Z 05005KT 24/13 A3004 RMK A01 T02440130  RH  049%=      5-min Rain = 0
KSC1 161416Z 05006KT 24/13 A3004 RMK A01 T02440130  RH  049%=      5-min Rain = 0
KSC1 161417Z 05005KT 24/13 A3004 RMK A01 T02440131  RH  049%=      5-min Rain = 0
KSC1 161418Z 05008KT 25/13 A3004 RMK A01 T02450130  RH  049%=      5-min Rain = 0
KSC1 161419Z 04008KT 24/13 A3004 RMK A01 T02440127  RH  048%=      5-min Rain = 0
KSC1 161420Z 06006KT 24/13 A3004 RMK A01 T02430127  RH  048%=      5-min Rain = 0
KSC1 161421Z 05006KT 24/13 A3004 RMK A01 T02420128  RH  049%=      5-min Rain = 0
KSC1 161422Z 07007KT 24/12 A3004 RMK A01 T02420124  RH  048%=      5-min Rain = 0
KSC1 161423Z 06008KT 24/13 A3004 RMK A01 T02420126  RH  048%=      5-min Rain = 0
KSC1 161424Z 07009KT 24/12 A3004 RMK A01 T02430122  RH  047%=      5-min Rain = 0
KSC1 161425Z 06007KT 24/12 A3004 RMK A01 T02430119  RH  046%=      5-min Rain = 0
KSC1 161426Z 06009KT 24/12 A3004 RMK A01 T02440120  RH  046%=      5-min Rain = 0
KSC1 161427Z 07006KT 24/12 A3004 RMK A01 T02440119  RH  045%=      5-min Rain = 0
KSC1 161428Z 06006KT 25/12 A3004 RMK A01 T02450120  RH  046%=      5-min Rain = 0
KSC1 161429Z 06007KT 25/12 A3005 RMK A01 T02470121  RH  045%=      5-min Rain = 0
KSC1 161430Z 07009KT 25/12 A3005 RMK A01 T02480121  RH  045%=      5-min Rain = 0
KSC1 161431Z 07009KT 25/12 A3005 RMK A01 T02490116  RH  043%=      5-min Rain = 0
KSC1 161432Z 07008KT 25/12 A3005 RMK A01 T02490117  RH  044%=      5-min Rain = 0
KSC1 161433Z 07008KT 25/12 A3005 RMK A01 T02490116  RH  043%=      5-min Rain = 0
KSC1 161434Z 07009KT 25/12 A3005 RMK A01 T02490115  RH  043%=      5-min Rain = 0
KSC1 161435Z 08009KT 25/12 A3005 RMK A01 T02490115  RH  043%=      5-min Rain = 0
KSC1 161436Z 08008KT 25/12 A3005 RMK A01 T02490116  RH  043%=      5-min Rain = 0
KSC1 161437Z 08008KT 25/12 A3005 RMK A01 T02500117  RH  043%=      5-min Rain = 0
KSC1 161438Z 09007KT 25/12 A3005 RMK A01 T02510117  RH  043%=      5-min Rain = 0
KSC1 161439Z 09007KT 25/12 A3005 RMK A01 T02520118  RH  043%=      5-min Rain = 0
KSC1 161440Z 09006KT 25/12 A3005 RMK A01 T02530119  RH  043%=      5-min Rain = 0
KSC1 161441Z 09008KT 25/12 A3005 RMK A01 T02540120  RH  043%=      5-min Rain = 0
KSC1 161442Z 08007KT 26/12 A3005 RMK A01 T02560117  RH  042%=      5-min Rain = 0
KSC1 161443Z 06007KT 26/12 A3005 RMK A01 T02560116  RH  042%=      5-min Rain = 0
KSC1 161444Z 07007KT 26/12 A3005 RMK A01 T02560115  RH  041%=      5-min Rain = 0
KSC1 161445Z 08010KT 26/11 A3005 RMK A01 T02570110  RH  040%=      5-min Rain = 0
KSC1 161446Z 08009KT 26/11 A3005 RMK A01 T02570108  RH  039%=      5-min Rain = 0
KSC1 161447Z 07008KT 26/11 A3005 RMK A01 T02570109  RH  040%=      5-min Rain = 0
KSC1 161448Z 07007KT 26/11 A3005 RMK A01 T02570108  RH  039%=      5-min Rain = 0
KSC1 161449Z 08006KT 26/11 A3005 RMK A01 T02580113  RH  040%=      5-min Rain = 0
KSC1 161450Z 08009KT 26/11 A3005 RMK A01 T02600114  RH  040%=      5-min Rain = 0
KSC1 161451Z 08009KT 26/11 A3005 RMK A01 T02610109  RH  038%=      5-min Rain = 0
KSC1 161452Z 07009KT 26/11 A3005 RMK A01 T02600107  RH  038%=      5-min Rain = 0
KSC1 161453Z 07010KT 26/11 A3005 RMK A01 T02590109  RH  039%=      5-min Rain = 0
KSC1 161454Z 08008KT 26/11 A3005 RMK A01 T02590109  RH  039%=      5-min Rain = 0
KSC1 161455Z 08008KT 26/11 A3005 RMK A01 T02590110  RH  039%=      5-min Rain = 0
KSC1 161456Z 09008KT 26/11 A3005 RMK A01 T02590111  RH  039%=      5-min Rain = 0
KSC1 161457Z 08004KT 26/12 A3005 RMK A01 T02600115  RH  040%=      5-min Rain = 0
KSC1 161458Z 08007KT 26/12 A3005 RMK A01 T02610116  RH  040%=      5-min Rain = 0
KSC1 161459Z 07006KT 26/12 A3005 RMK A01 T02630117  RH  040%=      5-min Rain = 0
KSC1 161500Z 08004KT 26/12 A3005 RMK A01 T02630117  RH  040%=      5-min Rain = 0
KSC1 161501Z 06006KT 27/12 A3005 RMK A01 T02650118  RH  040%=      5-min Rain = 0
KSC1 161502Z 05005KT 27/11 A3005 RMK A01 T02650114  RH  039%=      5-min Rain = 0
KSC1 161503Z 05008KT 26/12 A3005 RMK A01 T02640118  RH  040%=      5-min Rain = 0
KSC1 161504Z 05007KT 26/12 A3005 RMK A01 T02630118  RH  040%=      5-min Rain = 0
KSC1 161505Z 06008KT 26/12 A3005 RMK A01 T02630118  RH  040%=      5-min Rain = 0
KSC1 161506Z 06006KT 26/12 A3005 RMK A01 T02620117  RH  040%=      5-min Rain = 0
KSC1 161507Z 05006KT 26/12 A3005 RMK A01 T02620117  RH  040%=      5-min Rain = 0
KSC1 161508Z 07006KT 26/12 A3005 RMK A01 T02630121  RH  041%=      5-min Rain = 0
KSC1 161509Z 06007KT 27/12 A3005 RMK A01 T02650117  RH  040%=      5-min Rain = 0
KSC1 161510Z 07007KT 27/12 A3005 RMK A01 T02650118  RH  040%=      5-min Rain = 0
KSC1 161511Z 05005KT 27/12 A3005 RMK A01 T02650120  RH  040%=      5-min Rain = 0
KSC1 161512Z 05006KT 27/12 A3005 RMK A01 T02650119  RH  040%=      5-min Rain = 0
KSC1 161513Z 05007KT 27/12 A3005 RMK A01 T02660117  RH  040%=      5-min Rain = 0
KSC1 161514Z 06007KT 27/12 A3005 RMK A01 T02660118  RH  040%=      5-min Rain = 0
KSC1 161515Z 07008KT 27/12 A3005 RMK A01 T02670116  RH  039%=      5-min Rain = 0
KSC1 161516Z 09009KT 27/11 A3005 RMK A01 T02680113  RH  038%=      5-min Rain = 0
KSC1 161517Z 09008KT 27/11 A3005 RMK A01 T02680110  RH  037%=      5-min Rain = 0
KSC1 161518Z 07008KT 27/11 A3005 RMK A01 T02680111  RH  038%=      5-min Rain = 0
KSC1 161519Z 06007KT 27/11 A3005 RMK A01 T02680112  RH  038%=      5-min Rain = 0
KSC1 161520Z 07004KT 27/12 A3005 RMK A01 T02680116  RH  039%=      5-min Rain = 0
KSC1 161521Z 05009KT 27/12 A3005 RMK A01 T02700117  RH  039%=      5-min Rain = 0
KSC1 161522Z 06009KT 27/12 A3005 RMK A01 T02720115  RH  038%=      5-min Rain = 0
KSC1 161523Z 08009KT 27/12 A3006 RMK A01 T02730117  RH  038%=      5-min Rain = 0
KSC1 161524Z 08010KT 27/11 A3006 RMK A01 T02740112  RH  036%=      5-min Rain = 0
KSC1 161525Z 07007G13KT 27/11 A3006 RMK A01 T02740109  RH  036%=      5-min Rain = 0
KSC1 161526Z 08003KT 27/11 A3006 RMK A01 T02730112  RH  037%=      5-min Rain = 0
KSC1 161527Z 08007KT 27/11 A3006 RMK A01 T02730114  RH  037%=      5-min Rain = 0
KSC1 161528Z 09008KT 27/11 A3006 RMK A01 T02740114  RH  037%=      5-min Rain = 0
KSC1 161529Z 11007KT 28/11 A3006 RMK A01 T02750112  RH  036%=      5-min Rain = 0
KSC1 161530Z 09008KT 28/11 A3006 RMK A01 T02760106  RH  035%=      5-min Rain = 0
KSC1 161531Z 07007KT 28/11 A3006 RMK A01 T02760107  RH  035%=      5-min Rain = 0
KSC1 161532Z 08006KT 28/10 A3006 RMK A01 T02750103  RH  034%=      5-min Rain = 0
KSC1 161533Z 09005KT 28/11 A3006 RMK A01 T02750106  RH  035%=      5-min Rain = 0
KSC1 161534Z 07009G14KT 28/11 A3006 RMK A01 T02750111  RH  036%=      5-min Rain = 0
KSC1 161535Z 07012KT 28/11 A3006 RMK A01 T02760107  RH  035%=      5-min Rain = 0
KSC1 161536Z 07012KT 28/10 A3006 RMK A01 T02760103  RH  034%=      5-min Rain = 0
KSC1 161537Z 09007KT 27/11 A3006 RMK A01 T02740105  RH  035%=      5-min Rain = 0
KSC1 161538Z 09008KT 28/11 A3005 RMK A01 T02750107  RH  035%=      5-min Rain = 0
KSC1 161539Z 09009KT 28/11 A3005 RMK A01 T02770106  RH  034%=      5-min Rain = 0
KSC1 161540Z 09008KT 28/11 A3005 RMK A01 T02780107  RH  035%=      5-min Rain = 0
KSC1 161541Z 08007KT 28/11 A3005 RMK A01 T02790108  RH  035%=      5-min Rain = 0
KSC1 161542Z 09010KT 28/11 A3005 RMK A01 T02800107  RH  034%=      5-min Rain = 0
KSC1 161543Z 09008KT 28/10 A3005 RMK A01 T02810103  RH  033%=      5-min Rain = 0
KSC1 161544Z 08007KT 28/10 A3005 RMK A01 T02810101  RH  032%=      5-min Rain = 0
KSC1 161545Z 10008KT 28/11 A3005 RMK A01 T02820106  RH  033%=      5-min Rain = 0
KSC1 161546Z 09007KT 28/10 A3005 RMK A01 T02830101  RH  032%=      5-min Rain = 0
KSC1 161547Z 11006KT 28/11 A3005 RMK A01 T02820107  RH  034%=      5-min Rain = 0
KSC1 161548Z 09007KT 28/10 A3005 RMK A01 T02830102  RH  032%=      5-min Rain = 0
KSC1 161549Z 09008KT 28/11 A3005 RMK A01 T02840109  RH  034%=      5-min Rain = 0
KSC1 161550Z 10008KT 29/10 A3005 RMK A01 T02860104  RH  032%=      5-min Rain = 0
KSC1 161551Z 09010KT 29/10 A3005 RMK A01 T02850104  RH  032%=      5-min Rain = 0
KSC1 161552Z 09011KT 29/11 A3006 RMK A01 T02850108  RH  033%=      5-min Rain = 0
KSC1 161553Z 10010KT 29/11 A3006 RMK A01 T02870105  RH  032%=      5-min Rain = 0
KSC1 161554Z 10010KT 29/11 A3006 RMK A01 T02880105  RH  032%=      5-min Rain = 0
KSC1 161555Z 09011KT 29/10 A3006 RMK A01 T02860102  RH  032%=      5-min Rain = 0
KSC1 161556Z 11007G12KT 29/10 A3006 RMK A01 T02850102  RH  032%=      5-min Rain = 0
KSC1 161557Z 12009KT 28/11 A3006 RMK A01 T02840105  RH  033%=      5-min Rain = 0
KSC1 161558Z 12010KT 29/10 A3006 RMK A01 T02850103  RH  032%=      5-min Rain = 0
KSC1 161559Z 11007KT 29/10 A3005 RMK A01 T02850102  RH  032%=      5-min Rain = 0
KSC1 161600Z 11009KT 29/10 A3005 RMK A01 T02850104  RH  032%=      5-min Rain = 0
KSC1 161601Z 09009KT 29/10 A3005 RMK A01 T02850098  RH  031%=      5-min Rain = 0
KSC1 161602Z 12008KT 29/10 A3005 RMK A01 T02850100  RH  031%=      5-min Rain = 0
KSC1 161603Z 12010KT 29/10 A3005 RMK A01 T02850101  RH  032%=      5-min Rain = 0
KSC1 161604Z 11010KT 29/10 A3005 RMK A01 T02860099  RH  031%=      5-min Rain = 0
KSC1 161605Z 10008KT 29/10 A3005 RMK A01 T02860098  RH  031%=      5-min Rain = 0
KSC1 161606Z 13008KT 29/10 A3005 RMK A01 T02850102  RH  032%=      5-min Rain = 0
KSC1 161607Z 13009G15KT 29/11 A3005 RMK A01 T02850106  RH  033%=      5-min Rain = 0
KSC1 161608Z 12013KT 29/10 A3005 RMK A01 T02850102  RH  032%=      5-min Rain = 0
KSC1 161609Z 12013KT 29/10 A3005 RMK A01 T02850103  RH  032%=      5-min Rain = 0
KSC1 161610Z 13011KT 28/10 A3005 RMK A01 T02840102  RH  032%=      5-min Rain = 0
KSC1 161611Z 13011KT 28/10 A3005 RMK A01 T02840102  RH  032%=      5-min Rain = 0
KSC1 161612Z 13010KT 28/10 A3005 RMK A01 T02830099  RH  032%=      5-min Rain = 0
KSC1 161613Z 13009KT 28/10 A3005 RMK A01 T02810099  RH  032%=      5-min Rain = 0
KSC1 161614Z 13010G15KT 28/10 A3005 RMK A01 T02800101  RH  033%=      5-min Rain = 0
KSC1 161615Z 12013KT 28/10 A3005 RMK A01 T02810100  RH  032%=      5-min Rain = 0
KSC1 161616Z 10013KT 28/10 A3005 RMK A01 T02800100  RH  032%=      5-min Rain = 0
KSC1 161617Z 12009KT 28/10 A3005 RMK A01 T02820104  RH  033%=      5-min Rain = 0
KSC1 161618Z 13010KT 28/10 A3005 RMK A01 T02840102  RH  032%=      5-min Rain = 0
KSC1 161619Z 12010KT 29/10 A3005 RMK A01 T02850098  RH  031%=      5-min Rain = 0
KSC1 161620Z 12011KT 29/10 A3005 RMK A01 T02860100  RH  031%=      5-min Rain = 0
KSC1 161621Z 12010KT 29/10 A3005 RMK A01 T02890104  RH  032%=      5-min Rain = 0
KSC1 161622Z 13007KT 29/10 A3004 RMK A01 T02910102  RH  031%=      5-min Rain = 0
KSC1 161623Z 14012KT 29/10 A3004 RMK A01 T02930101  RH  030%=      5-min Rain = 0
KSC1 161624Z 14011KT 29/10 A3004 RMK A01 T02930102  RH  031%=      5-min Rain = 0
KSC1 161625Z 13013KT 29/10 A3004 RMK A01 T02930103  RH  031%=      5-min Rain = 0
KSC1 161626Z 12015KT 29/10 A3005 RMK A01 T02930104  RH  031%=      5-min Rain = 0
KSC1 161627Z 13014KT 29/10 A3005 RMK A01 T02930100  RH  030%=      5-min Rain = 0
KSC1 161628Z 13011G16KT 29/10 A3004 RMK A01 T02920099  RH  030%=      5-min Rain = 0
KSC1 161629Z 13013KT 29/10 A3004 RMK A01 T02910102  RH  031%=      5-min Rain = 0
KSC1 161630Z 14013KT 29/10 A3004 RMK A01 T02910099  RH  030%=      5-min Rain = 0
KSC1 161631Z 12011KT 29/10 A3004 RMK A01 T02910100  RH  030%=      5-min Rain = 0
KSC1 161632Z 12010KT 29/10 A3004 RMK A01 T02910099  RH  030%=      5-min Rain = 0
KSC1 161633Z 14009KT 29/10 A3004 RMK A01 T02920100  RH  030%=      5-min Rain = 0
KSC1 161634Z 14011G16KT 29/10 A3004 RMK A01 T02940098  RH  030%=      5-min Rain = 0
KSC1 161635Z 09014G22KT 30/11 A3004 RMK A01 T02950105  RH  031%=      5-min Rain = 0
KSC1 161636Z 08010KT 30/11 A3004 RMK A01 T02950108  RH  031%=      5-min Rain = 0
KSC1 161637Z 09009KT 29/11 A3004 RMK A01 T02930107  RH  032%=      5-min Rain = 0
KSC1 161638Z 09011KT 29/11 A3004 RMK A01 T02920110  RH  032%=      5-min Rain = 0
KSC1 161639Z 08010KT 29/11 A3004 RMK A01 T02920109  RH  032%=      5-min Rain = 0
KSC1 161640Z 09012KT 29/11 A3004 RMK A01 T02930108  RH  032%=      5-min Rain = 0
KSC1 161641Z 09008KT 29/11 A3004 RMK A01 T02920109  RH  032%=      5-min Rain = 0
KSC1 161642Z 08011KT 29/12 A3004 RMK A01 T02930115  RH  033%=      5-min Rain = 0
KSC1 161643Z 08009KT 29/12 A3004 RMK A01 T02920118  RH  034%=      5-min Rain = 0
KSC1 161644Z 09011KT 29/12 A3004 RMK A01 T02910118  RH  034%=      5-min Rain = 0
KSC1 161645Z 08006KT 29/12 A3004 RMK A01 T02900117  RH  034%=      5-min Rain = 0
KSC1 161646Z 06011KT 29/12 A3004 RMK A01 T02890118  RH  035%=      5-min Rain = 0
KSC1 161647Z 07008KT 29/12 A3004 RMK A01 T02880115  RH  034%=      5-min Rain = 0
KSC1 161648Z 08008G13KT 29/12 A3004 RMK A01 T02870118  RH  035%=      5-min Rain = 0
KSC1 161649Z 08010KT 29/12 A3004 RMK A01 T02880119  RH  035%=      5-min Rain = 0
KSC1 161650Z 08010KT 29/11 A3004 RMK A01 T02890113  RH  034%=      5-min Rain = 0
KSC1 161651Z 06008KT 29/11 A3004 RMK A01 T02870110  RH  033%=      5-min Rain = 0
KSC1 161652Z 09008G13KT 29/11 A3004 RMK A01 T02850110  RH  034%=      5-min Rain = 0
KSC1 161653Z 09011KT 29/11 A3004 RMK A01 T02860113  RH  034%=      5-min Rain = 0
KSC1 161654Z 09008KT 29/11 A3004 RMK A01 T02890113  RH  033%=      5-min Rain = 0
KSC1 161655Z 07006KT 29/11 A3004 RMK A01 T02900111  RH  033%=      5-min Rain = 0
KSC1 161656Z 06008KT 29/11 A3004 RMK A01 T02910109  RH  032%=      5-min Rain = 0
KSC1 161657Z 07008KT 29/11 A3004 RMK A01 T02900112  RH  033%=      5-min Rain = 0
KSC1 161658Z 07008KT 29/11 A3004 RMK A01 T02900113  RH  034%=      5-min Rain = 0
KSC1 161659Z 07005KT 29/11 A3004 RMK A01 T02910113  RH  033%=      5-min Rain = 0
KSC1 161700Z 09008KT 29/11 A3004 RMK A01 T02910114  RH  033%=      5-min Rain = 0
KSC1 161701Z 10014KT 29/11 A3004 RMK A01 T02920113  RH  033%=      5-min Rain = 0
KSC1 161702Z 10012KT 29/11 A3004 RMK A01 T02920113  RH  033%=      5-min Rain = 0
KSC1 161703Z 10010G18KT 29/11 A3003 RMK A01 T02910112  RH  033%=      5-min Rain = 0
KSC1 161704Z 11016KT 29/11 A3003 RMK A01 T02910112  RH  033%=      5-min Rain = 0
KSC1 161705Z 10012G17KT 29/11 A3004 RMK A01 T02910111  RH  033%=      5-min Rain = 0
KSC1 161706Z 11010KT 29/11 A3003 RMK A01 T02920109  RH  032%=      5-min Rain = 0
KSC1 161707Z 11008KT 29/11 A3003 RMK A01 T02900112  RH  033%=      5-min Rain = 0
KSC1 161708Z 09011KT 29/12 A3003 RMK A01 T02920115  RH  033%=      5-min Rain = 0
KSC1 161709Z 08010KT 29/12 A3003 RMK A01 T02940116  RH  033%=      5-min Rain = 0
KSC1 161710Z 08011G16KT 29/12 A3003 RMK A01 T02920115  RH  034%=      5-min Rain = 0
KSC1 161711Z 09014KT 29/12 A3004 RMK A01 T02910118  RH  034%=      5-min Rain = 0
KSC1 161712Z 10012KT 29/12 A3003 RMK A01 T02910118  RH  034%=      5-min Rain = 0
KSC1 161713Z 09012KT 29/12 A3004 RMK A01 T02910117  RH  034%=      5-min Rain = 0
KSC1 161714Z 10010KT 29/12 A3004 RMK A01 T02900115  RH  034%=      5-min Rain = 0
KSC1 161715Z 09009KT 29/12 A3004 RMK A01 T02900117  RH  034%=      5-min Rain = 0
KSC1 161716Z 09007KT 29/12 A3004 RMK A01 T02910119  RH  035%=      5-min Rain = 0
KSC1 161717Z 08011G16KT 29/12 A3004 RMK A01 T02930119  RH  034%=      5-min Rain = 0
KSC1 161718Z 09011KT 29/12 A3004 RMK A01 T02930117  RH  034%=      5-min Rain = 0
KSC1 161719Z 09011KT 29/11 A3004 RMK A01 T02910114  RH  033%=      5-min Rain = 0
KSC1 161720Z 10009KT 29/11 A3004 RMK A01 T02910114  RH  033%=      5-min Rain = 0
KSC1 161721Z 10013KT 29/12 A3004 RMK A01 T02900115  RH  034%=      5-min Rain = 0
KSC1 161722Z 09011KT 29/11 A3004 RMK A01 T02900113  RH  033%=      5-min Rain = 0
KSC1 161723Z 09004KT 29/12 A3004 RMK A01 T02900116  RH  034%=      5-min Rain = 0
KSC1 161724Z 08004KT 29/12 A3004 RMK A01 T02920119  RH  034%=      5-min Rain = 0
KSC1 161725Z 10005KT 30/12 A3004 RMK A01 T02950120  RH  034%=      5-min Rain = 0
KSC1 161726Z 10008KT 30/12 A3004 RMK A01 T02970122  RH  034%=      5-min Rain = 0
KSC1 161727Z 12009KT 30/12 A3004 RMK A01 T02990123  RH  034%=      5-min Rain = 0
KSC1 161728Z 12011KT 30/12 A3004 RMK A01 T03010120  RH  033%=      5-min Rain = 0
KSC1 161729Z 14010KT 30/12 A3004 RMK A01 T03000116  RH  032%=      5-min Rain = 0
KSC1 161730Z 13009KT 30/12 A3004 RMK A01 T02970115  RH  033%=      5-min Rain = 0
KSC1 161731Z 12008KT 30/12 A3004 RMK A01 T02960115  RH  033%=      5-min Rain = 0
KSC1 161732Z 10007KT 30/12 A3004 RMK A01 T02950115  RH  033%=      5-min Rain = 0
KSC1 161733Z 12007KT 30/12 A3004 RMK A01 T02950115  RH  033%=      5-min Rain = 0
KSC1 161734Z 14008KT 30/12 A3004 RMK A01 T02960118  RH  033%=      5-min Rain = 0
KSC1 161735Z 13007KT 30/12 A3004 RMK A01 T02980118  RH  033%=      5-min Rain = 0
KSC1 161736Z 12011KT 30/12 A3004 RMK A01 T02990118  RH  033%=      5-min Rain = 0
KSC1 161737Z 13011KT 30/11 A3004 RMK A01 T02970112  RH  032%=      5-min Rain = 0
KSC1 161738Z 15007KT 29/11 A3003 RMK A01 T02920114  RH  033%=      5-min Rain = 0
KSC1 161739Z 14006KT 29/12 A3003 RMK A01 T02920115  RH  033%=      5-min Rain = 0
KSC1 161740Z 12009KT 29/12 A3003 RMK A01 T02920117  RH  034%=      5-min Rain = 0
KSC1 161741Z 10010KT 29/12 A3003 RMK A01 T02930119  RH  034%=      5-min Rain = 0
KSC1 161742Z 09012KT 29/12 A3003 RMK A01 T02940118  RH  034%=      5-min Rain = 0
KSC1 161743Z 09012KT 29/12 A3003 RMK A01 T02940120  RH  034%=      5-min Rain = 0
KSC1 161744Z 09011KT 29/12 A3003 RMK A01 T02940119  RH  034%=      5-min Rain = 0
KSC1 161745Z 10013KT 29/12 A3003 RMK A01 T02940122  RH  035%=      5-min Rain = 0
KSC1 161746Z 10013KT 30/12 A3003 RMK A01 T02950122  RH  035%=      5-min Rain = 0
KSC1 161747Z 11011KT 30/12 A3003 RMK A01 T02960122  RH  034%=      5-min Rain = 0
KSC1 161748Z 10007KT 30/12 A3003 RMK A01 T02950120  RH  034%=      5-min Rain = 0
KSC1 161749Z 12010KT 30/12 A3003 RMK A01 T02950121  RH  034%=      5-min Rain = 0
KSC1 161750Z 13010KT 30/12 A3003 RMK A01 T02950118  RH  034%=      5-min Rain = 0
KSC1 161751Z 10010KT 29/12 A3003 RMK A01 T02930117  RH  034%=      5-min Rain = 0
KSC1 161752Z 09008G15KT 29/12 A3003 RMK A01 T02910116  RH  034%=      5-min Rain = 0
KSC1 161753Z 10012KT 29/12 A3003 RMK A01 T02900119  RH  035%=      5-min Rain = 0
KSC1 161754Z 09009KT 29/12 A3003 RMK A01 T02920121  RH  035%=      5-min Rain = 0
KSC1 161755Z 10010KT 29/12 A3003 RMK A01 T02940119  RH  034%=      5-min Rain = 0
KSC1 161756Z 10008KT 29/12 A3002 RMK A01 T02930116  RH  034%=      5-min Rain = 0
KSC1 161757Z 11006KT 29/12 A3002 RMK A01 T02910118  RH  034%=      5-min Rain = 0
KSC1 161758Z 10008KT 29/12 A3002 RMK A01 T02920122  RH  035%=      5-min Rain = 0
KSC1 161759Z 09010KT 30/12 A3002 RMK A01 T02950121  RH  034%=      5-min Rain = 0
KSC1 161800Z 09011KT 30/12 A3002 RMK A01 T02950123  RH  035%=      5-min Rain = 0
KSC1 161801Z 10011KT 30/12 A3002 RMK A01 T02950122  RH  034%=      5-min Rain = 0
KSC1 161802Z 09008KT 29/12 A3002 RMK A01 T02940117  RH  034%=      5-min Rain = 0
KSC1 161803Z 10009G15KT 29/12 A3002 RMK A01 T02910119  RH  035%=      5-min Rain = 0
KSC1 161804Z 10011KT 29/12 A3002 RMK A01 T02910123  RH  036%=      5-min Rain = 0
KSC1 161805Z 10010KT 29/13 A3002 RMK A01 T02930125  RH  035%=      5-min Rain = 0
KSC1 161806Z 11009KT 29/12 A3002 RMK A01 T02940123  RH  035%=      5-min Rain = 0
KSC1 161807Z 11013KT 29/13 A3002 RMK A01 T02940125  RH  035%=      5-min Rain = 0
KSC1 161808Z 10009KT 30/12 A3002 RMK A01 T02950123  RH  035%=      5-min Rain = 0
KSC1 161809Z 10011KT 30/13 A3002 RMK A01 T02950126  RH  036%=      5-min Rain = 0
KSC1 161810Z 10010KT 30/13 A3002 RMK A01 T02970126  RH  035%=      5-min Rain = 0
KSC1 161811Z 10009KT 30/12 A3002 RMK A01 T02970123  RH  034%=      5-min Rain = 0
KSC1 161812Z 09008KT 30/12 A3002 RMK A01 T02950119  RH  034%=      5-min Rain = 0
KSC1 161813Z 11009G14KT 29/12 A3002 RMK A01 T02930124  RH  035%=      5-min Rain = 0
KSC1 161814Z 14010KT 30/12 A3001 RMK A01 T02950121  RH  034%=      5-min Rain = 0
KSC1 161815Z 15010KT 30/12 A3001 RMK A01 T02960124  RH  035%=      5-min Rain = 0
KSC1 161816Z 16007KT 30/12 A3001 RMK A01 T02970121  RH  034%=      5-min Rain = 0
KSC1 161817Z 12007KT 30/12 A3001 RMK A01 T02960121  RH  034%=      5-min Rain = 0
KSC1 161818Z 15010KT 30/13 A3001 RMK A01 T02960127  RH  035%=      5-min Rain = 0
KSC1 161819Z 15011KT 30/12 A3001 RMK A01 T02990123  RH  034%=      5-min Rain = 0
KSC1 161820Z 11010KT 30/12 A3001 RMK A01 T03000124  RH  034%=      5-min Rain = 0
KSC1 161821Z 12006KT 30/12 A3001 RMK A01 T02970118  RH  033%=      5-min Rain = 0
KSC1 161822Z 15007KT 30/12 A3001 RMK A01 T02950123  RH  035%=      5-min Rain = 0
KSC1 161823Z 14009KT 30/13 A3001 RMK A01 T02970129  RH  036%=      5-min Rain = 0
KSC1 161824Z 14009G15KT 30/13 A3001 RMK A01 T03000129  RH  035%=      5-min Rain = 0
KSC1 161825Z 13011KT 30/13 A3001 RMK A01 T03030128  RH  034%=      5-min Rain = 0
KSC1 161826Z 14011KT 30/13 A3001 RMK A01 T03030125  RH  034%=      5-min Rain = 0
KSC1 161827Z 12007KT 30/12 A3001 RMK A01 T03000124  RH  034%=      5-min Rain = 0
KSC1 161828Z 12009KT 30/13 A3001 RMK A01 T02990128  RH  035%=      5-min Rain = 0
KSC1 161829Z 12015G20KT 30/12 A3001 RMK A01 T02990124  RH  034%=      5-min Rain = 0
KSC1 161830Z 11011KT 30/13 A3001 RMK A01 T02970127  RH  035%=      5-min Rain = 0
KSC1 161831Z 11009KT 30/13 A3001 RMK A01 T02960127  RH  035%=      5-min Rain = 0
KSC1 161832Z 11010KT 30/13 A3001 RMK A01 T02970127  RH  035%=      5-min Rain = 0
KSC1 161833Z 12011G16KT 30/13 A3001 RMK A01 T02980130  RH  036%=      5-min Rain = 0
KSC1 161834Z 11013KT 30/13 A3001 RMK A01 T03000126  RH  034%=      5-min Rain = 0
KSC1 161835Z 13011KT 30/13 A3001 RMK A01 T02990129  RH  035%=      5-min Rain = 0
KSC1 161836Z 14008KT 30/13 A3001 RMK A01 T02990127  RH  035%=      5-min Rain = 0
KSC1 161837Z 12012KT 30/13 A3001 RMK A01 T03000129  RH  035%=      5-min Rain = 0
KSC1 161838Z 12011KT 30/13 A3001 RMK A01 T03010128  RH  035%=      5-min Rain = 0
KSC1 161839Z 13011KT 30/13 A30 RMK A01 T03000130  RH  035%=      5-min Rain = 0
KSC1 161840Z 13011KT 30/13 A30 RMK A01 T02990129  RH  035%=      5-min Rain = 0
KSC1 161841Z 12011G17KT 30/13 A30 RMK A01 T02990134  RH  036%=      5-min Rain = 0
KSC1 161842Z 12014KT 30/13 A30 RMK A01 T03020131  RH  035%=      5-min Rain = 0
KSC1 161843Z 12013KT 30/13 A30 RMK A01 T03020129  RH  035%=      5-min Rain = 0
KSC1 161844Z 11014KT 30/13 A30 RMK A01 T03010129  RH  035%=      5-min Rain = 0
KSC1 161845Z 12010KT 30/13 A30 RMK A01 T03010129  RH  035%=      5-min Rain = 0
KSC1 161846Z 12015KT 30/13 A30 RMK A01 T03010128  RH  035%=      5-min Rain = 0
KSC1 161847Z 13013G18KT 30/13 A30 RMK A01 T03020129  RH  035%=      5-min Rain = 0
KSC1 161848Z 12013KT 30/13 A30 RMK A01 T03030130  RH  035%=      5-min Rain = 0
KSC1 161849Z 12012KT 30/13 A30 RMK A01 T03030130  RH  035%=      5-min Rain = 0
KSC1 161850Z 11010KT 30/13 A30 RMK A01 T03040129  RH  034%=      5-min Rain = 0
KSC1 161851Z 12011KT 30/13 A30 RMK A01 T03030134  RH  036%=      5-min Rain = 0
KSC1 161852Z 11013KT 31/13 A30 RMK A01 T03060133  RH  035%=      5-min Rain = 0
KSC1 161853Z 13010KT 31/13 A30 RMK A01 T03060133  RH  035%=      5-min Rain = 0
KSC1 161854Z 14010KT 31/13 A2999 RMK A01 T03070129  RH  034%=      5-min Rain = 0
KSC1 161855Z 16010G15KT 31/13 A2999 RMK A01 T03070127  RH  033%=      5-min Rain = 0
KSC1 161856Z 14012KT 31/13 A2999 RMK A01 T03070127  RH  033%=      5-min Rain = 0
KSC1 161857Z 13008G14KT 31/13 A2999 RMK A01 T03060128  RH  033%=      5-min Rain = 0
KSC1 161858Z 14012KT 31/13 A2999 RMK A01 T03070125  RH  033%=      5-min Rain = 0
KSC1 161859Z 15009KT 31/12 A2999 RMK A01 T03060123  RH  033%=      5-min Rain = 0
KSC1 161900Z 14010KT 31/13 A2999 RMK A01 T03050125  RH  033%=      5-min Rain = 0
KSC1 161901Z 13009G14KT 30/13 A2999 RMK A01 T03040125  RH  033%=      5-min Rain = 0
KSC1 161902Z 12009KT 31/13 A2999 RMK A01 T03050131  RH  034%=      5-min Rain = 0
KSC1 161903Z 12010KT 31/13 A2999 RMK A01 T03090131  RH  034%=      5-min Rain = 0
KSC1 161904Z 12008KT 31/13 A2999 RMK A01 T03100127  RH  033%=      5-min Rain = 0
KSC1 161905Z 13012KT 31/13 A2999 RMK A01 T03090130  RH  033%=      5-min Rain = 0
KSC1 161906Z 12011KT 31/13 A2999 RMK A01 T03080128  RH  033%=      5-min Rain = 0
KSC1 161907Z 11011KT 31/13 A2999 RMK A01 T03070130  RH  034%=      5-min Rain = 0
KSC1 161908Z 11011KT 31/13 A2999 RMK A01 T03050130  RH  034%=      5-min Rain = 0
KSC1 161909Z 11011KT 31/13 A2999 RMK A01 T03050133  RH  035%=      5-min Rain = 0
KSC1 161910Z 11010KT 31/14 A2999 RMK A01 T03060136  RH  035%=      5-min Rain = 0
KSC1 161911Z 11010KT 31/14 A2999 RMK A01 T03080136  RH  035%=      5-min Rain = 0
KSC1 161912Z 11010KT 31/14 A2999 RMK A01 T03080136  RH  035%=      5-min Rain = 0
KSC1 161913Z 12012KT 31/14 A2999 RMK A01 T03080137  RH  035%=      5-min Rain = 0
KSC1 161914Z 12011KT 31/13 A2999 RMK A01 T03090132  RH  034%=      5-min Rain = 0
KSC1 161915Z 11012KT 31/14 A2999 RMK A01 T03100136  RH  035%=      5-min Rain = 0
KSC1 161916Z 13010KT 31/14 A2999 RMK A01 T03130139  RH  035%=      5-min Rain = 0
KSC1 161917Z 12013G19KT 31/14 A2999 RMK A01 T03140137  RH  034%=      5-min Rain = 0
KSC1 161918Z 11015KT 31/14 A2999 RMK A01 T03120137  RH  035%=      5-min Rain = 0
KSC1 161919Z 13014KT 31/13 A2999 RMK A01 T03100134  RH  034%=      5-min Rain = 0
KSC1 161920Z 13011KT 31/13 A2999 RMK A01 T03080132  RH  034%=      5-min Rain = 0
KSC1 161921Z 13010KT 31/13 A2999 RMK A01 T03070131  RH  034%=      5-min Rain = 0
KSC1 161922Z 13007KT 31/13 A2999 RMK A01 T03060133  RH  035%=      5-min Rain = 0
KSC1 161923Z 10007G12KT 31/14 A2999 RMK A01 T03070138  RH  036%=      5-min Rain = 0
KSC1 161924Z 10009KT 31/14 A2999 RMK A01 T03090141  RH  036%=      5-min Rain = 0
KSC1 161925Z 11010KT 31/14 A2999 RMK A01 T03110141  RH  036%=      5-min Rain = 0
KSC1 161926Z 14007KT 31/14 A2999 RMK A01 T03110137  RH  035%=      5-min Rain = 0
KSC1 161927Z 15006KT 31/13 A2999 RMK A01 T03120128  RH  033%=      5-min Rain = 0
KSC1 161928Z 15008KT 31/13 A2998 RMK A01 T03120130  RH  033%=      5-min Rain = 0
KSC1 161929Z 13008KT 31/13 A2998 RMK A01 T03120129  RH  033%=      5-min Rain = 0
KSC1 161930Z 13011KT 31/14 A2999 RMK A01 T03130136  RH  034%=      5-min Rain = 0
KSC1 161931Z 11009KT 32/14 A2999 RMK A01 T03150140  RH  035%=      5-min Rain = 0
KSC1 161932Z 10012KT 32/14 A2999 RMK A01 T03150140  RH  035%=      5-min Rain = 0
KSC1 161933Z 11011KT 31/14 A2999 RMK A01 T03130139  RH  035%=      5-min Rain = 0
KSC1 161934Z 13012G17KT 31/14 A2999 RMK A01 T03120137  RH  035%=      5-min Rain = 0
KSC1 161935Z 13013KT 31/14 A2999 RMK A01 T03120137  RH  035%=      5-min Rain = 0
KSC1 161936Z 12013KT 31/14 A2999 RMK A01 T03100141  RH  036%=      5-min Rain = 0
KSC1 161937Z 12011KT 31/14 A2999 RMK A01 T03110139  RH  035%=      5-min Rain = 0
KSC1 161938Z 11011KT 31/14 A2999 RMK A01 T03100140  RH  036%=      5-min Rain = 0
KSC1 161939Z 12012KT 31/14 A2998 RMK A01 T03110140  RH  035%=      5-min Rain = 0
KSC1 161940Z 13010G16KT 31/14 A2998 RMK A01 T03110137  RH  034%=      5-min Rain = 0
KSC1 161941Z 11013G19KT 31/14 A2998 RMK A01 T03110135  RH  034%=      5-min Rain = 0
KSC1 161942Z 11012KT 31/13 A2998 RMK A01 T03100133  RH  034%=      5-min Rain = 0
KSC1 161943Z 12010KT 31/14 A2998 RMK A01 T03100137  RH  035%=      5-min Rain = 0
KSC1 161944Z 13009KT 31/14 A2998 RMK A01 T03130139  RH  035%=      5-min Rain = 0
KSC1 161945Z 13008G14KT 32/14 A2998 RMK A01 T03150140  RH  034%=      5-min Rain = 0
KSC1 161946Z 15008G14KT 32/14 A2998 RMK A01 T03170139  RH  034%=      5-min Rain = 0
KSC1 161947Z 16006KT 32/14 A2998 RMK A01 T03170135  RH  033%=      5-min Rain = 0
KSC1 161948Z 12010KT 32/14 A2998 RMK A01 T03170135  RH  033%=      5-min Rain = 0
KSC1 161949Z 12009KT 32/14 A2998 RMK A01 T03180135  RH  033%=      5-min Rain = 0
KSC1 161950Z 12011G16KT 32/14 A2998 RMK A01 T03190139  RH  034%=      5-min Rain = 0
KSC1 161951Z 12014KT 32/14 A2998 RMK A01 T03200138  RH  033%=      5-min Rain = 0
KSC1 161952Z 11009KT 32/14 A2998 RMK A01 T03170140  RH  034%=      5-min Rain = 0
KSC1 161953Z 11009KT 32/14 A2998 RMK A01 T03160139  RH  034%=      5-min Rain = 0
KSC1 161954Z 11011KT 32/14 A2998 RMK A01 T03150141  RH  035%=      5-min Rain = 0
KSC1 161955Z 10013KT 31/14 A2998 RMK A01 T03140140  RH  035%=      5-min Rain = 0
KSC1 161956Z 10010G15KT 31/14 A2998 RMK A01 T03130140  RH  035%=      5-min Rain = 0
KSC1 161957Z 10006KT 31/14 A2998 RMK A01 T03140141  RH  035%=      5-min Rain = 0
KSC1 161958Z 14009KT 32/14 A2998 RMK A01 T03150143  RH  035%=      5-min Rain = 0
KSC1 161959Z 13008KT 32/14 A2998 RMK A01 T03170139  RH  034%=      5-min Rain = 0
KSC1 162000Z 14012KT 32/14 A2998 RMK A01 T03170139  RH  034%=      5-min Rain = 0
KSC1 162001Z 15007KT 32/14 A2998 RMK A01 T03170136  RH  033%=      5-min Rain = 0
KSC1 162002Z 11008KT 32/14 A2998 RMK A01 T03150136  RH  034%=      5-min Rain = 0
KSC1 162003Z 12007KT 31/14 A2998 RMK A01 T03130136  RH  034%=      5-min Rain = 0
KSC1 162004Z 12010G15KT 31/14 A2998 RMK A01 T03120138  RH  035%=      5-min Rain = 0
KSC1 162005Z 12011G16KT 31/14 A2998 RMK A01 T03130136  RH  034%=      5-min Rain = 0
KSC1 162006Z 13009KT 31/14 A2997 RMK A01 T03130136  RH  034%=      5-min Rain = 0
KSC1 162007Z 13011KT 32/14 A2997 RMK A01 T03160139  RH  034%=      5-min Rain = 0
KSC1 162008Z 13012KT 32/14 A2997 RMK A01 T03180136  RH  033%=      5-min Rain = 0
KSC1 162009Z 14010G15KT 32/14 A2997 RMK A01 T03170135  RH  033%=      5-min Rain = 0
KSC1 162010Z 13007KT 32/14 A2997 RMK A01 T03160136  RH  033%=      5-min Rain = 0
KSC1 162011Z 13009KT 32/14 A2997 RMK A01 T03180138  RH  033%=      5-min Rain = 0
KSC1 162012Z 11009KT 32/14 A2997 RMK A01 T03200138  RH  033%=      5-min Rain = 0
KSC1 162013Z 11012KT 32/14 A2997 RMK A01 T03200137  RH  033%=      5-min Rain = 0
KSC1 162014Z 14011KT 32/14 A2997 RMK A01 T03210138  RH  033%=      5-min Rain = 0
KSC1 162015Z 13010KT 32/14 A2997 RMK A01 T03210136  RH  033%=      5-min Rain = 0
KSC1 162016Z 11005KT 32/13 A2997 RMK A01 T03190134  RH  032%=      5-min Rain = 0
KSC1 162017Z 11005KT 32/14 A2997 RMK A01 T03180135  RH  033%=      5-min Rain = 0
KSC1 162018Z 10006KT 32/14 A2997 RMK A01 T03200143  RH  034%=      5-min Rain = 0
KSC1 162019Z 14010G15KT 33/14 A2997 RMK A01 T03250142  RH  033%=      5-min Rain = 0
KSC1 162020Z 14012KT 33/14 A2997 RMK A01 T03270139  RH  032%=      5-min Rain = 0
KSC1 162021Z 13010KT 33/14 A2997 RMK A01 T03260139  RH  032%=      5-min Rain = 0
KSC1 162022Z 12008KT 32/14 A2997 RMK A01 T03240136  RH  032%=      5-min Rain = 0
KSC1 162023Z 10007KT 32/13 A2997 RMK A01 T03210133  RH  032%=      5-min Rain = 0
KSC1 162024Z 11007KT 32/13 A2997 RMK A01 T03180133  RH  033%=      5-min Rain = 0
KSC1 162025Z 11005KT 32/14 A2997 RMK A01 T03170136  RH  033%=      5-min Rain = 0
KSC1 162026Z 10007KT 32/14 A2997 RMK A01 T03200138  RH  033%=      5-min Rain = 0
KSC1 162027Z 09005KT 32/14 A2996 RMK A01 T03210137  RH  033%=      5-min Rain = 0
KSC1 162028Z 11006KT 32/14 A2996 RMK A01 T03220138  RH  033%=      5-min Rain = 0
KSC1 162029Z 13005KT 32/14 A2996 RMK A01 T03230140  RH  033%=      5-min Rain = 0
KSC1 162030Z 13009G14KT 33/14 A2996 RMK A01 T03250141  RH  033%=      5-min Rain = 0
KSC1 162031Z 12013G18KT 33/14 A2996 RMK A01 T03270140  RH  032%=      5-min Rain = 0
KSC1 162032Z 13010KT 32/14 A2996 RMK A01 T03240137  RH  032%=      5-min Rain = 0
KSC1 162033Z 13008KT 32/14 A2996 RMK A01 T03230140  RH  033%=      5-min Rain = 0
KSC1 162034Z 16010KT 32/14 A2996 RMK A01 T03240140  RH  033%=      5-min Rain = 0
KSC1 162035Z 14009G14KT 32/14 A2996 RMK A01 T03230138  RH  032%=      5-min Rain = 0
KSC1 162036Z 14012KT 32/14 A2996 RMK A01 T03230137  RH  033%=      5-min Rain = 0
KSC1 162037Z 12011KT 32/14 A2996 RMK A01 T03210137  RH  033%=      5-min Rain = 0
KSC1 162038Z 12011KT 32/14 A2996 RMK A01 T03210138  RH  033%=      5-min Rain = 0
KSC1 162039Z 10009KT 32/14 A2996 RMK A01 T03210137  RH  033%=      5-min Rain = 0
KSC1 162040Z 10007KT 32/14 A2996 RMK A01 T03210137  RH  033%=      5-min Rain = 0
KSC1 162041Z 12009KT 32/14 A2996 RMK A01 T03210139  RH  033%=      5-min Rain = 0
KSC1 162042Z 09009KT 32/14 A2996 RMK A01 T03220140  RH  033%=      5-min Rain = 0
KSC1 162043Z 10010KT 32/14 A2996 RMK A01 T03230139  RH  033%=      5-min Rain = 0
KSC1 162044Z 09009KT 32/14 A2996 RMK A01 T03240140  RH  033%=      5-min Rain = 0
KSC1 162045Z 13010KT 33/14 A2996 RMK A01 T03260141  RH  033%=      5-min Rain = 0
KSC1 162046Z 14012KT 33/14 A2996 RMK A01 T03270141  RH  032%=      5-min Rain = 0
KSC1 162047Z 13011KT 33/14 A2996 RMK A01 T03260136  RH  032%=      5-min Rain = 0
KSC1 162048Z 13012KT 32/14 A2996 RMK A01 T03220135  RH  032%=      5-min Rain = 0
KSC1 162049Z 10010KT 32/14 A2996 RMK A01 T03210138  RH  033%=      5-min Rain = 0
KSC1 162050Z 11007KT 32/14 A2995 RMK A01 T03210138  RH  033%=      5-min Rain = 0
KSC1 162051Z 13008KT 32/14 A2995 RMK A01 T03230140  RH  033%=      5-min Rain = 0
KSC1 162052Z 10012G17KT 33/14 A2995 RMK A01 T03250141  RH  033%=      5-min Rain = 0
KSC1 162053Z 12012KT 33/14 A2995 RMK A01 T03270141  RH  032%=      5-min Rain = 0
KSC1 162054Z 13006KT 33/14 A2995 RMK A01 T03290141  RH  032%=      5-min Rain = 0
KSC1 162055Z 14009G16KT 33/14 A2995 RMK A01 T03300141  RH  032%=      5-min Rain = 0
KSC1 162056Z 13014KT 33/14 A2995 RMK A01 T03310140  RH  032%=      5-min Rain = 0
KSC1 162057Z 13010KT 33/14 A2995 RMK A01 T03290139  RH  032%=      5-min Rain = 0
KSC1 162058Z 16008KT 33/14 A2995 RMK A01 T03280139  RH  032%=      5-min Rain = 0
KSC1 162059Z 13008G14KT 33/14 A2995 RMK A01 T03280138  RH  032%=      5-min Rain = 0
KSC1 162100Z 11013KT 33/14 A2995 RMK A01 T03280139  RH  032%=      5-min Rain = 0
KSC1 162101Z 11007KT 33/13 A2995 RMK A01 T03270134  RH  031%=      5-min Rain = 0
KSC1 162102Z 10005KT 32/13 A2995 RMK A01 T03230133  RH  032%=      5-min Rain = 0
KSC1 162103Z 11005KT 32/14 A2995 RMK A01 T03210137  RH  033%=      5-min Rain = 0
KSC1 162104Z 13009KT 32/14 A2995 RMK A01 T03230138  RH  033%=      5-min Rain = 0
KSC1 162105Z 15008KT 33/14 A2995 RMK A01 T03260137  RH  032%=      5-min Rain = 0
KSC1 162106Z 13008KT 33/14 A2995 RMK A01 T03260136  RH  032%=      5-min Rain = 0
KSC1 162107Z 12010KT 33/14 A2995 RMK A01 T03260137  RH  032%=      5-min Rain = 0
KSC1 162108Z 12006KT 33/13 A2995 RMK A01 T03260134  RH  031%=      5-min Rain = 0
KSC1 162109Z 14008KT 32/14 A2995 RMK A01 T03240137  RH  032%=      5-min Rain = 0
KSC1 162110Z 12006KT 32/14 A2995 RMK A01 T03240136  RH  032%=      5-min Rain = 0
KSC1 162111Z 10006KT 33/14 A2995 RMK A01 T03260137  RH  032%=      5-min Rain = 0
KSC1 162112Z 11007G13KT 33/14 A2995 RMK A01 T03260138  RH  032%=      5-min Rain = 0
KSC1 162113Z 13008G14KT 33/14 A2994 RMK A01 T03280139  RH  032%=      5-min Rain = 0
KSC1 162114Z 13009KT 33/14 A2995 RMK A01 T03300137  RH  031%=      5-min Rain = 0
KSC1 162115Z 12011KT 33/14 A2994 RMK A01 T03290139  RH  032%=      5-min Rain = 0
KSC1 162116Z 13010KT 33/14 A2994 RMK A01 T03290140  RH  032%=      5-min Rain = 0
KSC1 162117Z 13009KT 33/14 A2994 RMK A01 T03320140  RH  031%=      5-min Rain = 0
KSC1 162118Z 13008G14KT 33/14 A2994 RMK A01 T03310139  RH  031%=      5-min Rain = 0
KSC1 162119Z 15012KT 33/14 A2994 RMK A01 T03310140  RH  032%=      5-min Rain = 0
KSC1 162120Z 16009KT 33/14 A2994 RMK A01 T03300137  RH  031%=      5-min Rain = 0
KSC1 162121Z 14006KT 33/14 A2994 RMK A01 T03280136  RH  031%=      5-min Rain = 0
KSC1 162122Z 14007KT 33/14 A2994 RMK A01 T03280140  RH  032%=      5-min Rain = 0
KSC1 162123Z 13006KT 33/14 A2994 RMK A01 T03300139  RH  032%=      5-min Rain = 0
KSC1 162124Z 13007KT 33/14 A2994 RMK A01 T03310138  RH  031%=      5-min Rain = 0
KSC1 162125Z 09010G15KT 33/14 A2994 RMK A01 T03310138  RH  031%=      5-min Rain = 0
KSC1 162126Z 09012KT 33/14 A2994 RMK A01 T03310138  RH  031%=      5-min Rain = 0
KSC1 162127Z 09010KT 33/14 A2994 RMK A01 T03290136  RH  031%=      5-min Rain = 0
KSC1 162128Z 09009KT 33/14 A2994 RMK A01 T03270136  RH  031%=      5-min Rain = 0
KSC1 162129Z 08009KT 33/14 A2994 RMK A01 T03260135  RH  031%=      5-min Rain = 0
KSC1 162130Z 09009KT 33/14 A2994 RMK A01 T03250135  RH  032%=      5-min Rain = 0
KSC1 162131Z 12013KT 32/14 A2994 RMK A01 T03240137  RH  032%=      5-min Rain = 0
KSC1 162132Z 13013KT 33/14 A2994 RMK A01 T03260137  RH  032%=      5-min Rain = 0
KSC1 162133Z 13011KT 33/14 A2993 RMK A01 T03280137  RH  031%=      5-min Rain = 0
KSC1 162134Z 13010KT 33/14 A2993 RMK A01 T03280137  RH  031%=      5-min Rain = 0
KSC1 162135Z 13008KT 33/14 A2993 RMK A01 T03270137  RH  032%=      5-min Rain = 0
KSC1 162136Z 12009G15KT 33/14 A2993 RMK A01 T03270137  RH  032%=      5-min Rain = 0
KSC1 162137Z 11009KT 33/14 A2993 RMK A01 T03280137  RH  031%=      5-min Rain = 0
KSC1 162138Z 13007KT 33/14 A2993 RMK A01 T03270136  RH  031%=      5-min Rain = 0
KSC1 162139Z 13008KT 33/14 A2993 RMK A01 T03270139  RH  032%=      5-min Rain = 0
KSC1 162140Z 14010KT 33/14 A2993 RMK A01 T03270137  RH  032%=      5-min Rain = 0
KSC1 162141Z 15006KT 33/14 A2993 RMK A01 T03270136  RH  031%=      5-min Rain = 0
KSC1 162142Z 16007KT 33/14 A2993 RMK A01 T03250135  RH  032%=      5-min Rain = 0
KSC1 162143Z 14006KT 33/14 A2993 RMK A01 T03250135  RH  032%=      5-min Rain = 0
KSC1 162144Z 09006KT 33/14 A2993 RMK A01 T03250137  RH  032%=      5-min Rain = 0
KSC1 162145Z 10008KT 33/14 A2993 RMK A01 T03270141  RH  032%=      5-min Rain = 0
KSC1 162146Z 08009KT 33/14 A2993 RMK A01 T03330144  RH  032%=      5-min Rain = 0
KSC1 162147Z 10009KT 33/14 A2993 RMK A01 T03340137  RH  030%=      5-min Rain = 0
KSC1 162148Z 11010KT 33/14 A2992 RMK A01 T03310138  RH  031%=      5-min Rain = 0
KSC1 162149Z 13011KT 33/14 A2992 RMK A01 T03310140  RH  032%=      5-min Rain = 0
KSC1 162150Z 11015KT 33/14 A2992 RMK A01 T03320138  RH  031%=      5-min Rain = 0
KSC1 162151Z 11011KT 33/14 A2992 RMK A01 T03300138  RH  031%=      5-min Rain = 0
KSC1 162152Z 14007KT 33/14 A2992 RMK A01 T03300140  RH  032%=      5-min Rain = 0
KSC1 162153Z 11010KT 33/14 A2992 RMK A01 T03310140  RH  032%=      5-min Rain = 0
KSC1 162154Z 10008KT 33/14 A2992 RMK A01 T03310138  RH  031%=      5-min Rain = 0
KSC1 162155Z 09009KT 33/14 A2992 RMK A01 T03300136  RH  031%=      5-min Rain = 0
KSC1 162156Z 10008KT 33/14 A2992 RMK A01 T03280136  RH  031%=      5-min Rain = 0
KSC1 162157Z 10009KT 33/14 A2992 RMK A01 T03270137  RH  032%=      5-min Rain = 0
KSC1 162158Z 13010KT 33/14 A2992 RMK A01 T03280139  RH  032%=      5-min Rain = 0
KSC1 162159Z 15008KT 33/14 A2992 RMK A01 T03290137  RH  031%=      5-min Rain = 0
KSC1 162200Z 14010KT 33/14 A2992 RMK A01 T03270136  RH  031%=      5-min Rain = 0
KSC1 162201Z 13008KT 33/14 A2992 RMK A01 T03270140  RH  032%=      5-min Rain = 0
KSC1 162202Z 12010KT 33/14 A2992 RMK A01 T03290139  RH  032%=      5-min Rain = 0
KSC1 162203Z 10009KT 33/14 A2992 RMK A01 T03300137  RH  031%=      5-min Rain = 0
KSC1 162204Z 08007KT 33/14 A2992 RMK A01 T03290137  RH  031%=      5-min Rain = 0
KSC1 162205Z 09008KT 33/14 A2992 RMK A01 T03290138  RH  032%=      5-min Rain = 0
KSC1 162206Z 12009KT 33/14 A2992 RMK A01 T03280137  RH  031%=      5-min Rain = 0
KSC1 162207Z 10007KT 33/14 A2992 RMK A01 T03290143  RH  033%=      5-min Rain = 0
KSC1 162208Z 11008KT 34/14 A2992 RMK A01 T03350144  RH  032%=      5-min Rain = 0
KSC1 162209Z 10009G14KT 34/14 A2992 RMK A01 T03370142  RH  031%=      5-min Rain = 0
KSC1 162210Z 10012KT 34/14 A2992 RMK A01 T03350140  RH  031%=      5-min Rain = 0
KSC1 162211Z 11008KT 33/14 A2992 RMK A01 T03330142  RH  031%=      5-min Rain = 0
KSC1 162212Z 13009KT 33/14 A2992 RMK A01 T03340142  RH  031%=      5-min Rain = 0
KSC1 162213Z 13010KT 34/14 A2992 RMK A01 T03350139  RH  031%=      5-min Rain = 0
KSC1 162214Z 10010KT 33/14 A2992 RMK A01 T03330140  RH  031%=      5-min Rain = 0
KSC1 162215Z 10010KT 33/14 A2991 RMK A01 T03320139  RH  031%=      5-min Rain = 0
KSC1 162216Z 11012KT 33/14 A2991 RMK A01 T03310138  RH  031%=      5-min Rain = 0
KSC1 162217Z 10013KT 33/14 A2991 RMK A01 T03300138  RH  031%=      5-min Rain = 0
KSC1 162218Z 10012KT 33/14 A2991 RMK A01 T03280137  RH  031%=      5-min Rain = 0
KSC1 162219Z 11013KT 33/14 A2991 RMK A01 T03260138  RH  032%=      5-min Rain = 0
KSC1 162220Z 10011KT 33/14 A2991 RMK A01 T03260137  RH  032%=      5-min Rain = 0
KSC1 162221Z 10012KT 33/14 A2991 RMK A01 T03260138  RH  032%=      5-min Rain = 0
KSC1 162222Z 11015KT 33/14 A2991 RMK A01 T03260138  RH  032%=      5-min Rain = 0
KSC1 162223Z 11012KT 33/14 A2991 RMK A01 T03250138  RH  032%=      5-min Rain = 0
KSC1 162224Z 10011KT 33/14 A2991 RMK A01 T03250137  RH  032%=      5-min Rain = 0
KSC1 162225Z 09010KT 33/14 A2991 RMK A01 T03260140  RH  032%=      5-min Rain = 0
KSC1 162226Z 09010G15KT 33/14 A2991 RMK A01 T03270139  RH  032%=      5-min Rain = 0
KSC1 162227Z 10012KT 33/14 A2991 RMK A01 T03280139  RH  032%=      5-min Rain = 0
KSC1 162228Z 10011KT 33/14 A2991 RMK A01 T03280140  RH  032%=      5-min Rain = 0
KSC1 162229Z 10012KT 33/14 A2991 RMK A01 T03280139  RH  032%=      5-min Rain = 0
KSC1 162230Z 10011KT 33/14 A2991 RMK A01 T03270138  RH  032%=      5-min Rain = 0
KSC1 162231Z 11012KT 33/14 A2991 RMK A01 T03250139  RH  033%=      5-min Rain = 0
KSC1 162232Z 10013G18KT 32/14 A299 RMK A01 T03240139  RH  033%=      5-min Rain = 0
KSC1 162233Z 12014KT 32/14 A299 RMK A01 T03230137  RH  033%=      5-min Rain = 0
KSC1 162234Z 12011KT 32/14 A299 RMK A01 T03200138  RH  033%=      5-min Rain = 0
KSC1 162235Z 11008KT 32/14 A299 RMK A01 T03190140  RH  034%=      5-min Rain = 0
KSC1 162236Z 11008KT 32/14 A299 RMK A01 T03200140  RH  034%=      5-min Rain = 0
KSC1 162237Z 10010KT 32/14 A299 RMK A01 T03190140  RH  034%=      5-min Rain = 0
KSC1 162238Z 11014KT 32/14 A299 RMK A01 T03190139  RH  034%=      5-min Rain = 0
KSC1 162239Z 10013KT 32/14 A299 RMK A01 T03170136  RH  033%=      5-min Rain = 0
KSC1 162240Z 10011KT 32/14 A299 RMK A01 T03160137  RH  034%=      5-min Rain = 0
KSC1 162241Z 08010KT 32/14 A299 RMK A01 T03160139  RH  034%=      5-min Rain = 0
KSC1 162242Z 08012G17KT 32/14 A299 RMK A01 T03150138  RH  034%=      5-min Rain = 0
KSC1 162243Z 09012KT 32/14 A299 RMK A01 T03150137  RH  034%=      5-min Rain = 0
KSC1 162244Z 10013KT 31/14 A299 RMK A01 T03140138  RH  034%=      5-min Rain = 0
KSC1 162245Z 11011KT 31/14 A2989 RMK A01 T03140138  RH  034%=      5-min Rain = 0
KSC1 162246Z 10009KT 31/14 A2989 RMK A01 T03130138  RH  034%=      5-min Rain = 0
KSC1 162247Z 10013KT 31/14 A2989 RMK A01 T03130138  RH  034%=      5-min Rain = 0
KSC1 162248Z 10014KT 31/14 A2989 RMK A01 T03140138  RH  034%=      5-min Rain = 0
KSC1 162249Z 10012KT 31/14 A2989 RMK A01 T03130138  RH  034%=      5-min Rain = 0
KSC1 162250Z 09011KT 31/14 A2989 RMK A01 T03130139  RH  035%=      5-min Rain = 0
KSC1 162251Z 09010KT 31/14 A2989 RMK A01 T03120139  RH  035%=      5-min Rain = 0
KSC1 162252Z 09009KT 31/14 A2989 RMK A01 T03120140  RH  035%=      5-min Rain = 0
KSC1 162253Z 09012KT 31/14 A2989 RMK A01 T03130139  RH  035%=      5-min Rain = 0
KSC1 162254Z 11013KT 31/14 A2989 RMK A01 T03120138  RH  035%=      5-min Rain = 0
KSC1 162255Z 10012KT 31/14 A2989 RMK A01 T03120138  RH  035%=      5-min Rain = 0
KSC1 162256Z 09012KT 31/14 A2989 RMK A01 T03110139  RH  035%=      5-min Rain = 0
KSC1 162257Z 09011KT 31/14 A2989 RMK A01 T03110138  RH  035%=      5-min Rain = 0
KSC1 162258Z 09012KT 31/14 A2989 RMK A01 T03110138  RH  035%=      5-min Rain = 0
KSC1 162259Z 10013KT 31/14 A2989 RMK A01 T03100138  RH  035%=      5-min Rain = 0
KSC1 162300Z 10012KT 31/14 A2989 RMK A01 T03100137  RH  035%=      5-min Rain = 0
KSC1 162301Z 10012KT 31/14 A2989 RMK A01 T03090139  RH  035%=      5-min Rain = 0
KSC1 162302Z 09015KT 31/14 A299 RMK A01 T03090138  RH  035%=      5-min Rain = 0
KSC1 162303Z 10011KT 31/14 A299 RMK A01 T03080138  RH  035%=      5-min Rain = 0
KSC1 162304Z 10010G15KT 31/14 A299 RMK A01 T03080139  RH  036%=      5-min Rain = 0
KSC1 162305Z 09010KT 31/14 A299 RMK A01 T03080139  RH  036%=      5-min Rain = 0
KSC1 162306Z 09012KT 31/14 A299 RMK A01 T03070138  RH  036%=      5-min Rain = 0
KSC1 162307Z 10013KT 31/14 A299 RMK A01 T03070138  RH  036%=      5-min Rain = 0
KSC1 162308Z 10011KT 31/14 A299 RMK A01 T03070139  RH  036%=      5-min Rain = 0
KSC1 162309Z 09009G14KT 31/14 A299 RMK A01 T03060141  RH  036%=      5-min Rain = 0
KSC1 162310Z 10011KT 31/14 A299 RMK A01 T03060139  RH  036%=      5-min Rain = 0
KSC1 162311Z 09012KT 31/14 A299 RMK A01 T03060139  RH  036%=      5-min Rain = 0
KSC1 162312Z 10012KT 31/14 A2989 RMK A01 T03050138  RH  036%=      5-min Rain = 0
KSC1 162313Z 10010KT 31/14 A2989 RMK A01 T03050139  RH  036%=      5-min Rain = 0
KSC1 162314Z 10013KT 30/14 A2989 RMK A01 T03040139  RH  036%=      5-min Rain = 0
KSC1 162315Z 10012KT 30/14 A2989 RMK A01 T03040137  RH  036%=      5-min Rain = 0
KSC1 162316Z 10012KT 30/14 A2989 RMK A01 T03030138  RH  036%=      5-min Rain = 0
KSC1 162317Z 10011KT 30/14 A2989 RMK A01 T03030137  RH  036%=      5-min Rain = 0
KSC1 162318Z 11012KT 30/14 A2989 RMK A01 T03030137  RH  036%=      5-min Rain = 0
KSC1 162319Z 10011KT 30/14 A2989 RMK A01 T03020137  RH  036%=      5-min Rain = 0
KSC1 162320Z 10012KT 30/14 A2989 RMK A01 T03020137  RH  036%=      5-min Rain = 0
KSC1 162321Z 10012KT 30/14 A2989 RMK A01 T03020137  RH  036%=      5-min Rain = 0
KSC1 162322Z 10012KT 30/14 A2989 RMK A01 T03020137  RH  037%=      5-min Rain = 0
KSC1 162323Z 10010KT 30/14 A2989 RMK A01 T03020138  RH  037%=      5-min Rain = 0
KSC1 162324Z 10012KT 30/14 A2989 RMK A01 T03010139  RH  037%=      5-min Rain = 0
KSC1 162325Z 09013KT 30/14 A2989 RMK A01 T03010137  RH  037%=      5-min Rain = 0
KSC1 162326Z 10012KT 30/14 A2989 RMK A01 T03010137  RH  037%=      5-min Rain = 0
KSC1 162327Z 10013KT 30/14 A2989 RMK A01 T03010137  RH  037%=      5-min Rain = 0
KSC1 162328Z 09012KT 30/14 A2989 RMK A01 T03010138  RH  037%=      5-min Rain = 0
KSC1 162329Z 10011KT 30/14 A2988 RMK A01 T03000137  RH  037%=      5-min Rain = 0
KSC1 162330Z 09011KT 30/14 A2988 RMK A01 T03000137  RH  037%=      5-min Rain = 0
KSC1 162331Z 09011KT 30/14 A2988 RMK A01 T03000138  RH  037%=      5-min Rain = 0
KSC1 162332Z 10011KT 30/14 A2988 RMK A01 T02990138  RH  037%=      5-min Rain = 0
KSC1 162333Z 09011KT 30/14 A2988 RMK A01 T02990138  RH  037%=      5-min Rain = 0
KSC1 162334Z 09012KT 30/14 A2988 RMK A01 T02990137  RH  037%=      5-min Rain = 0
KSC1 162335Z 09012KT 30/14 A2988 RMK A01 T02990137  RH  037%=      5-min Rain = 0
KSC1 162336Z 10012KT 30/14 A2988 RMK A01 T02990137  RH  037%=      5-min Rain = 0
KSC1 162337Z 10011KT 30/14 A2989 RMK A01 T02990136  RH  037%=      5-min Rain = 0
KSC1 162338Z 10009KT 30/14 A2989 RMK A01 T02990137  RH  037%=      5-min Rain = 0
KSC1 162339Z 09010KT 30/14 A2989 RMK A01 T02980137  RH  037%=      5-min Rain = 0
KSC1 162340Z 10011KT 30/14 A2989 RMK A01 T02980136  RH  037%=      5-min Rain = 0
KSC1 162341Z 09010KT 30/14 A2989 RMK A01 T02980136  RH  037%=      5-min Rain = 0
KSC1 162342Z 09010KT 30/14 A2989 RMK A01 T02980136  RH  037%=      5-min Rain = 0
KSC1 162343Z 09009KT 30/14 A2989 RMK A01 T02980136  RH  037%=      5-min Rain = 0
KSC1 162344Z 08011KT 30/14 A299 RMK A01 T02980136  RH  037%=      5-min Rain = 0
KSC1 162345Z 08008G13KT 30/14 A299 RMK A01 T02980135  RH  037%=      5-min Rain = 0
KSC1 162346Z 08006KT 30/14 A299 RMK A01 T02980137  RH  037%=      5-min Rain = 0
KSC1 162347Z 08006KT 30/14 A2991 RMK A01 T02980138  RH  038%=      5-min Rain = 0
KSC1 162348Z 07005KT 30/14 A2991 RMK A01 T02970140  RH  038%=      5-min Rain = 0
KSC1 162349Z 07007KT 30/14 A2991 RMK A01 T02960141  RH  039%=      5-min Rain = 0
KSC1 162350Z 07010KT 30/14 A2991 RMK A01 T02950139  RH  038%=      5-min Rain = 0
KSC1 162351Z 06007KT 30/14 A2991 RMK A01 T02950138  RH  038%=      5-min Rain = 0
KSC1 162352Z 05007KT 30/14 A2991 RMK A01 T02950142  RH  039%=      5-min Rain = 0
KSC1 162353Z 06007KT 29/14 A2991 RMK A01 T02940142  RH  040%=      5-min Rain = 0
KSC1 162354Z 07007KT 29/14 A2991 RMK A01 T02930141  RH  039%=      5-min Rain = 0
KSC1 162355Z 07007KT 29/14 A2991 RMK A01 T02930140  RH  039%=      5-min Rain = 0
KSC1 162356Z 07008KT 29/14 A2991 RMK A01 T02930142  RH  040%=      5-min Rain = 0
KSC1 162357Z 08007KT 29/14 A2991 RMK A01 T02920142  RH  040%=      5-min Rain = 0
KSC1 162358Z 08007KT 29/14 A2991 RMK A01 T02910141  RH  040%=      5-min Rain = 0
KSC1 162359Z 08007KT 29/14 A2991 RMK A01 T02910142  RH  040%=      5-min Rain = 0
KSC1 170000Z 09005KT 29/14 A2991 RMK A01 T02900144  RH  041%=      5-min Rain = 0
KSC1 170001Z 09005KT 29/15 A2991 RMK A01 T02890146  RH  042%=      5-min Rain = 0
KSC1 170002Z 10005KT 29/15 A2991 RMK A01 T02880147  RH  042%=      5-min Rain = 0
KSC1 170003Z 09005KT 29/15 A2991 RMK A01 T02870146  RH  042%=      5-min Rain = 0
KSC1 170004Z 09003KT 29/15 A2991 RMK A01 T02870145  RH  042%=      5-min Rain = 0
KSC1 170005Z 07002KT 29/15 A2991 RMK A01 T02860147  RH  043%=      5-min Rain = 0
KSC1 170006Z 07000KT 29/15 A2992 RMK A01 T02850145  RH  042%=      5-min Rain = 0
KSC1 170007Z 32002KT 29/15 A2992 RMK A01 T02850147  RH  043%=      5-min Rain = 0
KSC1 170008Z 32003KT 28/15 A2992 RMK A01 T02840151  RH  044%=      5-min Rain = 0
KSC1 170009Z 32004KT 28/15 A2993 RMK A01 T02820153  RH  045%=      5-min Rain = 0
KSC1 170010Z 31004KT 28/15 A2993 RMK A01 T02800151  RH  045%=      5-min Rain = 0
KSC1 170011Z 31004KT 28/15 A2993 RMK A01 T02790150  RH  045%=      5-min Rain = 0
KSC1 170012Z 32002KT 28/15 A2993 RMK A01 T02790151  RH  046%=      5-min Rain = 0
KSC1 170013Z 34001KT 28/16 A2993 RMK A01 T02790155  RH  047%=      5-min Rain = 0
KSC1 170014Z 05001KT 28/16 A2993 RMK A01 T02780156  RH  047%=      5-min Rain = 0
KSC1 170015Z 04001KT 28/16 A2993 RMK A01 T02780157  RH  048%=      5-min Rain = 0
KSC1 170016Z 00002KT 28/16 A2993 RMK A01 T02780156  RH  048%=      5-min Rain = 0
KSC1 170017Z 02003KT 28/16 A2993 RMK A01 T02770163  RH  050%=      5-min Rain = 0
KSC1 170018Z 07002KT 28/16 A2993 RMK A01 T02750158  RH  049%=      5-min Rain = 0
KSC1 170019Z 03002KT 27/16 A2993 RMK A01 T02740164  RH  051%=      5-min Rain = 0
KSC1 170020Z 06001KT 27/16 A2993 RMK A01 T02730161  RH  050%=      5-min Rain = 0
KSC1 170021Z 08004KT 27/16 A2993 RMK A01 T02720160  RH  050%=      5-min Rain = 0
KSC1 170022Z 09006KT 27/17 A2993 RMK A01 T02710166  RH  053%=      5-min Rain = 0
KSC1 170023Z 10009KT 27/17 A2993 RMK A01 T02690165  RH  053%=      5-min Rain = 0
KSC1 170024Z 10013G18KT 27/17 A2992 RMK A01 T02650166  RH  055%=      5-min Rain = 0
KSC1 170025Z 10016KT 26/16 A2991 RMK A01 T02610163  RH  055%=      5-min Rain = 0
KSC1 170026Z 10015KT 26/17 A2991 RMK A01 T02580167  RH  057%=      5-min Rain = 0
KSC1 170027Z 10013KT 26/17 A299 RMK A01 T02550167  RH  058%=      5-min Rain = 0
KSC1 170028Z 11012KT 26/17 A299 RMK A01 T02550165  RH  058%=      5-min Rain = 0
KSC1 170029Z 10012KT 26/16 A299 RMK A01 T02550164  RH  057%=      5-min Rain = 0
KSC1 170030Z 11011KT 26/16 A299 RMK A01 T02560159  RH  055%=      5-min Rain = 0
KSC1 170031Z 11010KT 26/16 A2991 RMK A01 T02580161  RH  055%=      5-min Rain = 0
KSC1 170032Z 12009KT 26/16 A2991 RMK A01 T02580161  RH  055%=      5-min Rain = 0
KSC1 170033Z 13009KT 26/16 A2991 RMK A01 T02590159  RH  054%=      5-min Rain = 0
KSC1 170034Z 13010KT 26/16 A2991 RMK A01 T02610159  RH  053%=      5-min Rain = 0
KSC1 170035Z 13010KT 26/16 A2991 RMK A01 T02630161  RH  053%=      5-min Rain = 0
KSC1 170036Z 13009KT 26/16 A2991 RMK A01 T02640162  RH  053%=      5-min Rain = 0
KSC1 170037Z 13010KT 27/16 A2991 RMK A01 T02650162  RH  053%=      5-min Rain = 0
KSC1 170038Z 12010KT 27/16 A2991 RMK A01 T02650160  RH  053%=      5-min Rain = 0
KSC1 170039Z 13009KT 27/16 A299 RMK A01 T02650161  RH  053%=      5-min Rain = 0
KSC1 170040Z 12007KT 27/16 A299 RMK A01 T02650163  RH  053%=      5-min Rain = 0
KSC1 170041Z 12006KT 27/17 A299 RMK A01 T02650167  RH  055%=      5-min Rain = 0
KSC1 170042Z 13004KT 27/17 A2989 RMK A01 T02650168  RH  055%=      5-min Rain = 0
KSC1 170043Z 13006KT 26/16 A2989 RMK A01 T02640163  RH  054%=      5-min Rain = 0
KSC1 170044Z 12003KT 27/17 A2989 RMK A01 T02650165  RH  054%=      5-min Rain = 0
KSC1 170045Z 11005KT 27/16 A2988 RMK A01 T02660164  RH  054%=      5-min Rain = 0
KSC1 170046Z 10005KT 27/17 A2988 RMK A01 T02670165  RH  053%=      5-min Rain = 0
KSC1 170047Z 11006KT 27/17 A2988 RMK A01 T02670169  RH  055%=      5-min Rain = 0
KSC1 170048Z 11006KT 27/17 A2988 RMK A01 T02670168  RH  055%=      5-min Rain = 0
KSC1 170049Z 12005KT 27/17 A2988 RMK A01 T02660168  RH  055%=      5-min Rain = 0
KSC1 170050Z 12005KT 27/17 A2988 RMK A01 T02660167  RH  054%=      5-min Rain = 0
KSC1 170051Z 12005KT 27/17 A2988 RMK A01 T02670165  RH  054%=      5-min Rain = 0
KSC1 170052Z 12005KT 27/17 A2988 RMK A01 T02670166  RH  054%=      5-min Rain = 0
KSC1 170053Z 12006KT 27/17 A2987 RMK A01 T02670165  RH  054%=      5-min Rain = 0
KSC1 170054Z 12005KT 27/16 A2987 RMK A01 T02670164  RH  053%=      5-min Rain = 0
KSC1 170055Z 12006KT 27/17 A2988 RMK A01 T02670166  RH  054%=      5-min Rain = 0
KSC1 170056Z 12005KT 27/17 A2988 RMK A01 T02680165  RH  053%=      5-min Rain = 0
KSC1 170057Z 11006KT 27/17 A2988 RMK A01 T02680166  RH  054%=      5-min Rain = 0
KSC1 170058Z 10007KT 27/17 A2988 RMK A01 T02680166  RH  054%=      5-min Rain = 0
KSC1 170059Z 09006KT 27/17 A2988 RMK A01 T02670165  RH  053%=      5-min Rain = 0
KSC1 170100Z 08006KT 27/17 A2988 RMK A01 T02670165  RH  054%=      5-min Rain = 0
KSC1 170101Z 09006KT 27/16 A2988 RMK A01 T02660163  RH  053%=      5-min Rain = 0
KSC1 170102Z 09004KT 27/16 A2988 RMK A01 T02660164  RH  054%=      5-min Rain = 0
KSC1 170103Z 10005KT 27/16 A2988 RMK A01 T02650164  RH  054%=      5-min Rain = 0
KSC1 170104Z 10005KT 27/16 A2989 RMK A01 T02650163  RH  054%=      5-min Rain = 0
KSC1 170105Z 10006KT 27/16 A2988 RMK A01 T02650164  RH  054%=      5-min Rain = 0
KSC1 170106Z 10006KT 27/16 A2988 RMK A01 T02650159  RH  052%=      5-min Rain = 0
KSC1 170107Z 09006KT 27/16 A2988 RMK A01 T02660159  RH  052%=      5-min Rain = 0
KSC1 170108Z 08005KT 27/16 A2988 RMK A01 T02660158  RH  052%=      5-min Rain = 0
KSC1 170109Z 08006KT 27/16 A2988 RMK A01 T02660159  RH  052%=      5-min Rain = 0
KSC1 170110Z 09007KT 27/16 A2988 RMK A01 T02660156  RH  051%=      5-min Rain = 0
KSC1 170111Z 08006KT 27/15 A2988 RMK A01 T02660154  RH  050%=      5-min Rain = 0
KSC1 170112Z 09006KT 27/16 A2988 RMK A01 T02660156  RH  051%=      5-min Rain = 0
KSC1 170113Z 09005KT 27/16 A2988 RMK A01 T02650158  RH  052%=      5-min Rain = 0
KSC1 170114Z 09005KT 26/16 A2989 RMK A01 T02640160  RH  053%=      5-min Rain = 0
KSC1 170115Z 10005KT 26/16 A2989 RMK A01 T02630161  RH  053%=      5-min Rain = 0
KSC1 170116Z 10005KT 26/16 A2989 RMK A01 T02610159  RH  053%=      5-min Rain = 0
KSC1 170117Z 09004KT 26/16 A2989 RMK A01 T02610159  RH  053%=      5-min Rain = 0
KSC1 170118Z 08005KT 26/16 A2989 RMK A01 T02600158  RH  053%=      5-min Rain = 0
KSC1 170119Z 08006KT 26/16 A2989 RMK A01 T02590157  RH  053%=      5-min Rain = 0
KSC1 170120Z 08004KT 26/16 A299 RMK A01 T02580157  RH  054%=      5-min Rain = 0
KSC1 170121Z 08004KT 26/16 A299 RMK A01 T02570155  RH  053%=      5-min Rain = 0
KSC1 170122Z 07003KT 26/15 A299 RMK A01 T02560154  RH  053%=      5-min Rain = 0
KSC1 170123Z 07002KT 26/15 A299 RMK A01 T02560154  RH  053%=      5-min Rain = 0
KSC1 170124Z 06002KT 26/15 A299 RMK A01 T02550151  RH  053%=      5-min Rain = 0
KSC1 170125Z 06002KT 26/15 A299 RMK A01 T02550151  RH  053%=      5-min Rain = 0
KSC1 170126Z 06002KT 25/15 A299 RMK A01 T02540150  RH  052%=      5-min Rain = 0
KSC1 170127Z 06002KT 25/15 A299 RMK A01 T02540150  RH  053%=      5-min Rain = 0
KSC1 170128Z 06001KT 25/15 A299 RMK A01 T02540151  RH  053%=      5-min Rain = 0
KSC1 170129Z 06001KT 25/15 A299 RMK A01 T02530152  RH  054%=      5-min Rain = 0
KSC1 170130Z 06000KT 25/15 A2991 RMK A01 T02530153  RH  054%=      5-min Rain = 0
KSC1 170131Z 00000KT 25/15 A2991 RMK A01 T02520151  RH  054%=      5-min Rain = 0
KSC1 170132Z 06000KT 25/15 A2991 RMK A01 T02510152  RH  054%=      5-min Rain = 0
KSC1 170133Z 03001KT 25/16 A2991 RMK A01 T02500158  RH  057%=      5-min Rain = 0
KSC1 170134Z 01002KT 25/16 A2991 RMK A01 T02480162  RH  059%=      5-min Rain = 0
KSC1 170135Z 02004KT 25/16 A2992 RMK A01 T02450157  RH  058%=      5-min Rain = 0
KSC1 170136Z 03004KT 24/16 A2992 RMK A01 T02440162  RH  060%=      5-min Rain = 0
KSC1 170137Z 03005KT 24/15 A2992 RMK A01 T02430154  RH  058%=      5-min Rain = 0
KSC1 170138Z 04006KT 24/15 A2992 RMK A01 T02430153  RH  057%=      5-min Rain = 0
KSC1 170139Z 04006KT 24/15 A2992 RMK A01 T02430153  RH  057%=      5-min Rain = 0
KSC1 170140Z 03005KT 24/15 A2993 RMK A01 T02430154  RH  057%=      5-min Rain = 0
KSC1 170141Z 03006KT 24/15 A2993 RMK A01 T02420153  RH  057%=      5-min Rain = 0
KSC1 170142Z 04006KT 24/15 A2993 RMK A01 T02420150  RH  056%=      5-min Rain = 0
KSC1 170143Z 04007KT 24/15 A2993 RMK A01 T02420148  RH  055%=      5-min Rain = 0
KSC1 170144Z 03007KT 24/15 A2993 RMK A01 T02430148  RH  055%=      5-min Rain = 0
KSC1 170145Z 03006KT 24/15 A2993 RMK A01 T02430148  RH  055%=      5-min Rain = 0
KSC1 170146Z 04005KT 24/15 A2993 RMK A01 T02420149  RH  056%=      5-min Rain = 0
KSC1 170147Z 05003KT 24/15 A2993 RMK A01 T02420149  RH  056%=      5-min Rain = 0
KSC1 170148Z 07003KT 24/15 A2993 RMK A01 T02410149  RH  056%=      5-min Rain = 0
KSC1 170149Z 10002KT 24/15 A2993 RMK A01 T02410148  RH  056%=      5-min Rain = 0
KSC1 170150Z 14004KT 24/15 A2993 RMK A01 T02410149  RH  056%=      5-min Rain = 0
KSC1 170151Z 15005KT 24/15 A2994 RMK A01 T02410147  RH  056%=      5-min Rain = 0
KSC1 170152Z 15006KT 24/15 A2994 RMK A01 T02410148  RH  056%=      5-min Rain = 0
KSC1 170153Z 16007KT 24/15 A2994 RMK A01 T02410148  RH  056%=      5-min Rain = 0
KSC1 170154Z 17007KT 24/15 A2994 RMK A01 T02400149  RH  057%=      5-min Rain = 0
KSC1 170155Z 17008KT 24/15 A2994 RMK A01 T02390152  RH  058%=      5-min Rain = 0
KSC1 170156Z 17007KT 24/15 A2994 RMK A01 T02380152  RH  059%=      5-min Rain = 0
KSC1 170157Z 18006KT 24/15 A2994 RMK A01 T02380153  RH  059%=      5-min Rain = 0
KSC1 170158Z 17006KT 24/15 A2993 RMK A01 T02370152  RH  059%=      5-min Rain = 0
KSC1 170159Z 15005KT 24/15 A2993 RMK A01 T02370149  RH  058%=      5-min Rain = 0
KSC1 170200Z 14006KT 24/15 A2993 RMK A01 T02380145  RH  056%=      5-min Rain = 0
KSC1 170201Z 12006KT 24/14 A2993 RMK A01 T02400139  RH  053%=      5-min Rain = 0
KSC1 170202Z 12005KT 24/14 A2993 RMK A01 T02420143  RH  054%=      5-min Rain = 0
KSC1 170203Z 12005KT 24/15 A2993 RMK A01 T02420146  RH  055%=      5-min Rain = 0
KSC1 170204Z 12005KT 24/14 A2993 RMK A01 T02410143  RH  054%=      5-min Rain = 0
KSC1 170205Z 11005KT 24/14 A2993 RMK A01 T02410139  RH  053%=      5-min Rain = 0
KSC1 170206Z 10007KT 24/14 A2993 RMK A01 T02410136  RH  052%=      5-min Rain = 0
KSC1 170207Z 10006KT 24/13 A2993 RMK A01 T02410131  RH  050%=      5-min Rain = 0
KSC1 170208Z 11006KT 24/13 A2993 RMK A01 T02430131  RH  049%=      5-min Rain = 0
KSC1 170209Z 12006KT 24/13 A2993 RMK A01 T02440130  RH  049%=      5-min Rain = 0
KSC1 170210Z 12005KT 24/13 A2993 RMK A01 T02440128  RH  048%=      5-min Rain = 0
KSC1 170211Z 12006KT 24/13 A2993 RMK A01 T02440127  RH  048%=      5-min Rain = 0
KSC1 170212Z 13006KT 24/13 A2993 RMK A01 T02440127  RH  048%=      5-min Rain = 0
KSC1 170213Z 14006KT 25/13 A2993 RMK A01 T02450127  RH  048%=      5-min Rain = 0
KSC1 170214Z 14007KT 25/13 A2993 RMK A01 T02450125  RH  047%=      5-min Rain = 0
KSC1 170215Z 15007KT 25/13 A2993 RMK A01 T02450126  RH  047%=      5-min Rain = 0
KSC1 170216Z 16006KT 25/13 A2994 RMK A01 T02450128  RH  048%=      5-min Rain = 0
KSC1 170217Z 17006KT 24/13 A2994 RMK A01 T02440131  RH  049%=      5-min Rain = 0
KSC1 170218Z 18005KT 24/13 A2994 RMK A01 T02420133  RH  050%=      5-min Rain = 0
KSC1 170219Z 17005KT 24/13 A2994 RMK A01 T02400132  RH  051%=      5-min Rain = 0
KSC1 170220Z 17005KT 24/13 A2994 RMK A01 T02400133  RH  051%=      5-min Rain = 0
KSC1 170221Z 17004KT 24/13 A2994 RMK A01 T02390132  RH  051%=      5-min Rain = 0
KSC1 170222Z 18005KT 24/13 A2994 RMK A01 T02390132  RH  051%=      5-min Rain = 0
KSC1 170223Z 17004KT 24/13 A2994 RMK A01 T02380132  RH  051%=      5-min Rain = 0
KSC1 170224Z 16004KT 24/13 A2994 RMK A01 T02380132  RH  051%=      5-min Rain = 0
KSC1 170225Z 16005KT 24/13 A2994 RMK A01 T02370132  RH  051%=      5-min Rain = 0
KSC1 170226Z 16006KT 24/13 A2994 RMK A01 T02370131  RH  052%=      5-min Rain = 0
KSC1 170227Z 16005KT 24/13 A2994 RMK A01 T02370131  RH  052%=      5-min Rain = 0
KSC1 170228Z 17006KT 24/13 A2994 RMK A01 T02360133  RH  052%=      5-min Rain = 0
KSC1 170229Z 17008KT 24/13 A2994 RMK A01 T02360131  RH  052%=      5-min Rain = 0
KSC1 170230Z 17007KT 24/13 A2994 RMK A01 T02360129  RH  051%=      5-min Rain = 0
KSC1 170231Z 18007KT 24/13 A2994 RMK A01 T02360132  RH  052%=      5-min Rain = 0
KSC1 170232Z 18006KT 24/13 A2994 RMK A01 T02360134  RH  053%=      5-min Rain = 0
KSC1 170233Z 18008KT 24/13 A2994 RMK A01 T02360134  RH  053%=      5-min Rain = 0
KSC1 170234Z 17007KT 24/13 A2994 RMK A01 T02360133  RH  052%=      5-min Rain = 0
KSC1 170235Z 16008KT 24/13 A2994 RMK A01 T02360132  RH  052%=      5-min Rain = 0
KSC1 170236Z 16007KT 24/13 A2994 RMK A01 T02360131  RH  052%=      5-min Rain = 0
KSC1 170237Z 17007KT 24/13 A2994 RMK A01 T02360131  RH  052%=      5-min Rain = 0
KSC1 170238Z 17007KT 24/13 A2994 RMK A01 T02360130  RH  051%=      5-min Rain = 0
KSC1 170239Z 17007KT 24/13 A2994 RMK A01 T02360129  RH  051%=      5-min Rain = 0
KSC1 170240Z 17008KT 24/13 A2994 RMK A01 T02350126  RH  050%=      5-min Rain = 0
KSC1 170241Z 17007KT 24/13 A2994 RMK A01 T02360127  RH  050%=      5-min Rain = 0
KSC1 170242Z 17006KT 24/13 A2994 RMK A01 T02360127  RH  050%=      5-min Rain = 0
KSC1 170243Z 17007KT 24/13 A2994 RMK A01 T02360128  RH  051%=      5-min Rain = 0
KSC1 170244Z 17007KT 24/13 A2994 RMK A01 T02350128  RH  051%=      5-min Rain = 0
KSC1 170245Z 16006KT 24/13 A2994 RMK A01 T02350128  RH  051%=      5-min Rain = 0
KSC1 170246Z 16006KT 23/13 A2994 RMK A01 T02340130  RH  052%=      5-min Rain = 0
KSC1 170247Z 16007KT 23/13 A2994 RMK A01 T02330130  RH  052%=      5-min Rain = 0
KSC1 170248Z 16006KT 23/13 A2994 RMK A01 T02330129  RH  052%=      5-min Rain = 0
KSC1 170249Z 16007KT 23/13 A2994 RMK A01 T02320129  RH  052%=      5-min Rain = 0
KSC1 170250Z 16006KT 23/13 A2994 RMK A01 T02320129  RH  052%=      5-min Rain = 0
KSC1 170251Z 15007KT 23/13 A2994 RMK A01 T02320128  RH  052%=      5-min Rain = 0
KSC1 170252Z 16006KT 23/13 A2994 RMK A01 T02320128  RH  052%=      5-min Rain = 0
KSC1 170253Z 15006KT 23/13 A2994 RMK A01 T02320127  RH  052%=      5-min Rain = 0
KSC1 170254Z 15007KT 23/13 A2994 RMK A01 T02320127  RH  052%=      5-min Rain = 0
KSC1 170255Z 15005KT 23/13 A2994 RMK A01 T02320127  RH  052%=      5-min Rain = 0
KSC1 170256Z 15006KT 23/13 A2994 RMK A01 T02320126  RH  051%=      5-min Rain = 0
KSC1 170257Z 15005KT 23/13 A2994 RMK A01 T02320126  RH  051%=      5-min Rain = 0
KSC1 170258Z 15006KT 23/13 A2994 RMK A01 T02320126  RH  051%=      5-min Rain = 0
KSC1 170259Z 16005KT 23/13 A2994 RMK A01 T02320126  RH  051%=      5-min Rain = 0
KSC1 170300Z 16006KT 23/13 A2994 RMK A01 T02310126  RH  052%=      5-min Rain = 0
KSC1 170301Z 16007KT 23/13 A2994 RMK A01 T02310126  RH  052%=      5-min Rain = 0
KSC1 170302Z 16006KT 23/13 A2994 RMK A01 T02310127  RH  052%=      5-min Rain = 0
KSC1 170303Z 16007KT 23/13 A2994 RMK A01 T02300128  RH  052%=      5-min Rain = 0
KSC1 170304Z 15007KT 23/13 A2994 RMK A01 T02300128  RH  053%=      5-min Rain = 0
KSC1 170305Z 15006KT 23/13 A2994 RMK A01 T02290128  RH  053%=      5-min Rain = 0
KSC1 170306Z 15005KT 23/13 A2995 RMK A01 T02290129  RH  053%=      5-min Rain = 0
KSC1 170307Z 15006KT 23/13 A2995 RMK A01 T02280130  RH  054%=      5-min Rain = 0
KSC1 170308Z 15006KT 23/13 A2995 RMK A01 T02270130  RH  054%=      5-min Rain = 0
KSC1 170309Z 16007KT 23/13 A2995 RMK A01 T02260131  RH  055%=      5-min Rain = 0
KSC1 170310Z 16008KT 23/13 A2995 RMK A01 T02260130  RH  055%=      5-min Rain = 0
KSC1 170311Z 16008KT 23/13 A2995 RMK A01 T02260131  RH  055%=      5-min Rain = 0
KSC1 170312Z 16008KT 23/13 A2995 RMK A01 T02250130  RH  055%=      5-min Rain = 0
KSC1 170313Z 15008KT 23/13 A2995 RMK A01 T02250129  RH  054%=      5-min Rain = 0
KSC1 170314Z 14007KT 23/13 A2995 RMK A01 T02260127  RH  054%=      5-min Rain = 0
KSC1 170315Z 15007KT 23/13 A2995 RMK A01 T02270127  RH  053%=      5-min Rain = 0
KSC1 170316Z 16006KT 23/13 A2995 RMK A01 T02280126  RH  053%=      5-min Rain = 0
KSC1 170317Z 17007KT 23/13 A2995 RMK A01 T02290128  RH  053%=      5-min Rain = 0
KSC1 170318Z 16007KT 23/13 A2995 RMK A01 T02280127  RH  053%=      5-min Rain = 0
KSC1 170319Z 16007KT 23/13 A2995 RMK A01 T02280129  RH  053%=      5-min Rain = 0
KSC1 170320Z 16005KT 23/13 A2995 RMK A01 T02270129  RH  054%=      5-min Rain = 0
KSC1 170321Z 15005KT 23/13 A2995 RMK A01 T02270130  RH  054%=      5-min Rain = 0
KSC1 170322Z 15007KT 23/13 A2995 RMK A01 T02260130  RH  055%=      5-min Rain = 0
KSC1 170323Z 16007KT 23/13 A2996 RMK A01 T02260131  RH  055%=      5-min Rain = 0
KSC1 170324Z 17007KT 23/13 A2996 RMK A01 T02250131  RH  055%=      5-min Rain = 0
KSC1 170325Z 16007KT 22/13 A2996 RMK A01 T02240130  RH  055%=      5-min Rain = 0
KSC1 170326Z 17008KT 22/13 A2996 RMK A01 T02240129  RH  055%=      5-min Rain = 0
KSC1 170327Z 16008KT 23/13 A2996 RMK A01 T02250130  RH  055%=      5-min Rain = 0
KSC1 170328Z 15007KT 23/13 A2996 RMK A01 T02250129  RH  055%=      5-min Rain = 0
KSC1 170329Z 16007KT 23/13 A2996 RMK A01 T02250129  RH  055%=      5-min Rain = 0
KSC1 170330Z 15007KT 23/13 A2996 RMK A01 T02250129  RH  055%=      5-min Rain = 0
KSC1 170331Z 15007KT 23/13 A2996 RMK A01 T02250128  RH  054%=      5-min Rain = 0
KSC1 170332Z 15007KT 23/13 A2996 RMK A01 T02250129  RH  055%=      5-min Rain = 0
KSC1 170333Z 14007KT 23/13 A2996 RMK A01 T02250130  RH  055%=      5-min Rain = 0
KSC1 170334Z 15007KT 23/13 A2996 RMK A01 T02250130  RH  055%=      5-min Rain = 0
KSC1 170335Z 15007KT 23/13 A2996 RMK A01 T02250130  RH  055%=      5-min Rain = 0
KSC1 170336Z 16006KT 22/13 A2996 RMK A01 T02240130  RH  055%=      5-min Rain = 0
KSC1 170337Z 15007KT 22/13 A2996 RMK A01 T02240132  RH  056%=      5-min Rain = 0
KSC1 170338Z 15007KT 22/13 A2996 RMK A01 T02230132  RH  056%=      5-min Rain = 0
KSC1 170339Z 15006KT 22/13 A2997 RMK A01 T02230132  RH  056%=      5-min Rain = 0
KSC1 170340Z 15007KT 22/13 A2997 RMK A01 T02220132  RH  056%=      5-min Rain = 0
KSC1 170341Z 15006KT 22/13 A2997 RMK A01 T02220131  RH  056%=      5-min Rain = 0
KSC1 170342Z 15006KT 22/13 A2996 RMK A01 T02220130  RH  056%=      5-min Rain = 0
KSC1 170343Z 15005KT 22/13 A2997 RMK A01 T02220131  RH  056%=      5-min Rain = 0
KSC1 170344Z 14005KT 22/13 A2997 RMK A01 T02220132  RH  056%=      5-min Rain = 0
KSC1 170345Z 13006KT 22/13 A2997 RMK A01 T02220132  RH  057%=      5-min Rain = 0
KSC1 170346Z 14005KT 22/13 A2997 RMK A01 T02220131  RH  057%=      5-min Rain = 0
KSC1 170347Z 14006KT 22/13 A2997 RMK A01 T02210131  RH  057%=      5-min Rain = 0
KSC1 170348Z 14005KT 22/13 A2997 RMK A01 T02210131  RH  057%=      5-min Rain = 0
KSC1 170349Z 13006KT 22/13 A2997 RMK A01 T02210131  RH  057%=      5-min Rain = 0
KSC1 170350Z 14005KT 22/13 A2997 RMK A01 T02210131  RH  057%=      5-min Rain = 0
KSC1 170351Z 13005KT 22/13 A2997 RMK A01 T02210132  RH  057%=      5-min Rain = 0
KSC1 170352Z 13005KT 22/13 A2997 RMK A01 T02210131  RH  057%=      5-min Rain = 0
KSC1 170353Z 14005KT 22/13 A2997 RMK A01 T02210131  RH  057%=      5-min Rain = 0
KSC1 170354Z 14004KT 22/13 A2997 RMK A01 T02210132  RH  057%=      5-min Rain = 0
KSC1 170355Z 15006KT 22/13 A2997 RMK A01 T02210132  RH  057%=      5-min Rain = 0
KSC1 170356Z 15005KT 22/13 A2997 RMK A01 T02200131  RH  057%=      5-min Rain = 0
KSC1 170357Z 14004KT 22/13 A2997 RMK A01 T02200132  RH  057%=      5-min Rain = 0
KSC1 170358Z 14004KT 22/13 A2997 RMK A01 T02200132  RH  057%=      5-min Rain = 0
KSC1 170359Z 14004KT 22/13 A2997 RMK A01 T02200132  RH  057%=      5-min Rain = 0
KSC1 170400Z 14005KT 22/13 A2997 RMK A01 T02190132  RH  058%=      5-min Rain = 0
KSC1 170401Z 14004KT 22/13 A2997 RMK A01 T02190132  RH  058%=      5-min Rain = 0
KSC1 170402Z 14005KT 22/13 A2997 RMK A01 T02180132  RH  058%=      5-min Rain = 0
KSC1 170403Z 13005KT 22/13 A2997 RMK A01 T02180134  RH  059%=      5-min Rain = 0
KSC1 170404Z 12005KT 22/13 A2997 RMK A01 T02180133  RH  059%=      5-min Rain = 0
KSC1 170405Z 13004KT 22/13 A2997 RMK A01 T02170133  RH  059%=      5-min Rain = 0
KSC1 170406Z 12004KT 22/13 A2997 RMK A01 T02170134  RH  059%=      5-min Rain = 0
KSC1 170407Z 12003KT 22/14 A2997 RMK A01 T02170135  RH  059%=      5-min Rain = 0
KSC1 170408Z 12004KT 22/13 A2997 RMK A01 T02160134  RH  060%=      5-min Rain = 0
KSC1 170409Z 12003KT 21/14 A2997 RMK A01 T02140135  RH  061%=      5-min Rain = 0
KSC1 170410Z 11002KT 21/14 A2997 RMK A01 T02130137  RH  062%=      5-min Rain = 0
KSC1 170411Z 12002KT 21/14 A2997 RMK A01 T02110137  RH  062%=      5-min Rain = 0
KSC1 170412Z 12002KT 21/14 A2997 RMK A01 T02100136  RH  063%=      5-min Rain = 0
KSC1 170413Z 10002KT 21/14 A2997 RMK A01 T02090136  RH  063%=      5-min Rain = 0
KSC1 170414Z 08002KT 21/14 A2997 RMK A01 T02080138  RH  064%=      5-min Rain = 0
KSC1 170415Z 08003KT 21/14 A2997 RMK A01 T02060139  RH  065%=      5-min Rain = 0
KSC1 170416Z 08003KT 21/14 A2997 RMK A01 T02050140  RH  066%=      5-min Rain = 0
KSC1 170417Z 06004KT 20/14 A2997 RMK A01 T02040141  RH  067%=      5-min Rain = 0
KSC1 170418Z 06005KT 20/14 A2997 RMK A01 T02030141  RH  068%=      5-min Rain = 0
KSC1 170419Z 06005KT 20/14 A2997 RMK A01 T02020141  RH  068%=      5-min Rain = 0
KSC1 170420Z 07005KT 20/14 A2997 RMK A01 T02020141  RH  068%=      5-min Rain = 0
KSC1 170421Z 06005KT 20/14 A2997 RMK A01 T02020140  RH  067%=      5-min Rain = 0
KSC1 170422Z 06004KT 20/14 A2997 RMK A01 T02030138  RH  067%=      5-min Rain = 0
KSC1 170423Z 07003KT 20/14 A2997 RMK A01 T02030138  RH  066%=      5-min Rain = 0
KSC1 170424Z 07003KT 20/14 A2997 RMK A01 T02040138  RH  066%=      5-min Rain = 0
KSC1 170425Z 08003KT 20/14 A2997 RMK A01 T02040138  RH  066%=      5-min Rain = 0
KSC1 170426Z 09003KT 20/14 A2997 RMK A01 T02040139  RH  066%=      5-min Rain = 0
KSC1 170427Z 09004KT 20/14 A2997 RMK A01 T02030138  RH  066%=      5-min Rain = 0
KSC1 170428Z 08004KT 20/14 A2997 RMK A01 T02030138  RH  066%=      5-min Rain = 0
KSC1 170429Z 08004KT 20/14 A2997 RMK A01 T02030137  RH  066%=      5-min Rain = 0
KSC1 170430Z 08004KT 20/14 A2997 RMK A01 T02030136  RH  065%=      5-min Rain = 0
KSC1 170431Z 08004KT 20/14 A2997 RMK A01 T02030135  RH  065%=      5-min Rain = 0
KSC1 170432Z 08004KT 20/14 A2997 RMK A01 T02040135  RH  065%=      5-min Rain = 0
KSC1 170433Z 07003KT 20/14 A2997 RMK A01 T02040136  RH  065%=      5-min Rain = 0
KSC1 170434Z 06003KT 20/14 A2997 RMK A01 T02040139  RH  066%=      5-min Rain = 0
KSC1 170435Z 04003KT 20/14 A2997 RMK A01 T02020139  RH  067%=      5-min Rain = 0
KSC1 170436Z 03003KT 20/14 A2997 RMK A01 T02010138  RH  067%=      5-min Rain = 0
KSC1 170437Z 05003KT 20/14 A2997 RMK A01 T02010138  RH  067%=      5-min Rain = 0
KSC1 170438Z 05002KT 20/14 A2997 RMK A01 T02000137  RH  067%=      5-min Rain = 0
KSC1 170439Z 06002KT 20/14 A2997 RMK A01 T02000137  RH  067%=      5-min Rain = 0
KSC1 170440Z 08001KT 20/14 A2997 RMK A01 T02000139  RH  068%=      5-min Rain = 0
KSC1 170441Z 09001KT 20/14 A2997 RMK A01 T01990140  RH  069%=      5-min Rain = 0
KSC1 170442Z 10001KT 20/14 A2997 RMK A01 T01980140  RH  069%=      5-min Rain = 0
KSC1 170443Z 11001KT 20/14 A2997 RMK A01 T01970139  RH  069%=      5-min Rain = 0
KSC1 170444Z 11002KT 20/14 A2997 RMK A01 T01970138  RH  069%=      5-min Rain = 0
KSC1 170445Z 12002KT 20/14 A2997 RMK A01 T01960141  RH  070%=      5-min Rain = 0
KSC1 170446Z 11002KT 20/14 A2997 RMK A01 T01950143  RH  072%=      5-min Rain = 0
KSC1 170447Z 11003KT 20/14 A2997 RMK A01 T01950143  RH  072%=      5-min Rain = 0
KSC1 170448Z 11002KT 19/14 A2997 RMK A01 T01940142  RH  072%=      5-min Rain = 0
KSC1 170449Z 11002KT 19/14 A2997 RMK A01 T01930140  RH  071%=      5-min Rain = 0
KSC1 170450Z 11002KT 19/14 A2997 RMK A01 T01920138  RH  071%=      5-min Rain = 0
KSC1 170451Z 11002KT 19/14 A2997 RMK A01 T01920138  RH  071%=      5-min Rain = 0
KSC1 170452Z 12002KT 19/14 A2997 RMK A01 T01920140  RH  072%=      5-min Rain = 0
KSC1 170453Z 12002KT 19/14 A2997 RMK A01 T01910141  RH  073%=      5-min Rain = 0
KSC1 170454Z 14002KT 19/14 A2997 RMK A01 T01910140  RH  072%=      5-min Rain = 0
KSC1 170455Z 15002KT 19/14 A2997 RMK A01 T01910138  RH  071%=      5-min Rain = 0
KSC1 170456Z 17002KT 19/14 A2997 RMK A01 T01910139  RH  071%=      5-min Rain = 0
KSC1 170457Z 18002KT 19/14 A2997 RMK A01 T01910139  RH  072%=      5-min Rain = 0
KSC1 170458Z 18002KT 19/14 A2997 RMK A01 T01910140  RH  072%=      5-min Rain = 0
KSC1 170459Z 17001KT 19/14 A2997 RMK A01 T01910140  RH  072%=      5-min Rain = 0

Page generated in 0.149 seconds.